<?xml version="1.0" encoding="utf-8"?>
<gpx xmlns:xsi="http://www.w3.org/2001/XMLSchema-instance" xmlns:xsd="http://www.w3.org/2001/XMLSchema" version="1.1" creator="Shapelink.com" xmlns="http://www.topografix.com/GPX/1/1" xmlns:gpxtpx="http://www.garmin.com/xmlschemas/TrackPointExtension/v1">
  <metadata>
    <name>Ejecutar 6.58 km, 2020-02-08</name>
    <desc></desc>
    <author><name>Per Rooth</name></author> 
    <time>2020-02-08T11:00:50Z</time>
  </metadata>
  <trk>
    <name>Ejecutar 6.58 km, 2020-02-08</name>
    <trkseg>
      <trkpt lat="56.875597697192" lon="14.839329254859">
        <ele>189.4</ele>
        <time>2020-02-08T11:00:50Z</time>
      </trkpt>
      <trkpt lat="56.875572635311" lon="14.839338223492">
        <ele>188.2</ele>
        <time>2020-02-08T11:00:51Z</time>
      </trkpt>
      <trkpt lat="56.875392759737" lon="14.839345515745">
        <ele>188.4</ele>
        <time>2020-02-08T11:00:58Z</time>
      </trkpt>
      <trkpt lat="56.875250518894" lon="14.839352472722">
        <ele>189.2</ele>
        <time>2020-02-08T11:01:05Z</time>
      </trkpt>
      <trkpt lat="56.875237275492" lon="14.839373762748">
        <ele>189.4</ele>
        <time>2020-02-08T11:01:06Z</time>
      </trkpt>
      <trkpt lat="56.875176925812" lon="14.839446685278">
        <ele>190.6</ele>
        <time>2020-02-08T11:01:10Z</time>
      </trkpt>
      <trkpt lat="56.875113558648" lon="14.839483314181">
        <ele>191.8</ele>
        <time>2020-02-08T11:01:14Z</time>
      </trkpt>
      <trkpt lat="56.875076678288" lon="14.839500748533">
        <ele>192</ele>
        <time>2020-02-08T11:01:17Z</time>
      </trkpt>
      <trkpt lat="56.875053795701" lon="14.839495635574">
        <ele>192</ele>
        <time>2020-02-08T11:01:20Z</time>
      </trkpt>
      <trkpt lat="56.875008784898" lon="14.839506364406">
        <ele>191.6</ele>
        <time>2020-02-08T11:01:25Z</time>
      </trkpt>
      <trkpt lat="56.874956565661" lon="14.83949680904">
        <ele>190.4</ele>
        <time>2020-02-08T11:01:28Z</time>
      </trkpt>
      <trkpt lat="56.874940388594" lon="14.839490438796">
        <ele>190</ele>
        <time>2020-02-08T11:01:29Z</time>
      </trkpt>
      <trkpt lat="56.874919433844" lon="14.839479123231">
        <ele>189</ele>
        <time>2020-02-08T11:01:31Z</time>
      </trkpt>
      <trkpt lat="56.874897724723" lon="14.839470070779">
        <ele>188.6</ele>
        <time>2020-02-08T11:01:33Z</time>
      </trkpt>
      <trkpt lat="56.874884313683" lon="14.839458000843">
        <ele>188.4</ele>
        <time>2020-02-08T11:01:35Z</time>
      </trkpt>
      <trkpt lat="56.874872495204" lon="14.839434866799">
        <ele>188</ele>
        <time>2020-02-08T11:01:37Z</time>
      </trkpt>
      <trkpt lat="56.874835614844" lon="14.839383988666">
        <ele>187.6</ele>
        <time>2020-02-08T11:01:40Z</time>
      </trkpt>
      <trkpt lat="56.874782473598" lon="14.839361441355">
        <ele>187.4</ele>
        <time>2020-02-08T11:01:44Z</time>
      </trkpt>
      <trkpt lat="56.8747286618" lon="14.839337469121">
        <ele>187.2</ele>
        <time>2020-02-08T11:01:49Z</time>
      </trkpt>
      <trkpt lat="56.87471105981" lon="14.839316514371">
        <ele>187.6</ele>
        <time>2020-02-08T11:01:52Z</time>
      </trkpt>
      <trkpt lat="56.874630425932" lon="14.839261361469">
        <ele>188</ele>
        <time>2020-02-08T11:01:59Z</time>
      </trkpt>
      <trkpt lat="56.874578709609" lon="14.839268653722">
        <ele>188.2</ele>
        <time>2020-02-08T11:02:04Z</time>
      </trkpt>
      <trkpt lat="56.874548870045" lon="14.839263540763">
        <ele>188.4</ele>
        <time>2020-02-08T11:02:07Z</time>
      </trkpt>
      <trkpt lat="56.874531435693" lon="14.839259349813">
        <ele>188.4</ele>
        <time>2020-02-08T11:02:09Z</time>
      </trkpt>
      <trkpt lat="56.874514671893" lon="14.839238059787">
        <ele>187.6</ele>
        <time>2020-02-08T11:02:12Z</time>
      </trkpt>
      <trkpt lat="56.874492124582" lon="14.839229007335">
        <ele>187</ele>
        <time>2020-02-08T11:02:15Z</time>
      </trkpt>
      <trkpt lat="56.874476282791" lon="14.8392235591">
        <ele>187</ele>
        <time>2020-02-08T11:02:17Z</time>
      </trkpt>
      <trkpt lat="56.874448035788" lon="14.839206208567">
        <ele>186.6</ele>
        <time>2020-02-08T11:02:19Z</time>
      </trkpt>
      <trkpt lat="56.874434038015" lon="14.83920176616">
        <ele>186.4</ele>
        <time>2020-02-08T11:02:20Z</time>
      </trkpt>
      <trkpt lat="56.874418782957" lon="14.839190785871">
        <ele>186</ele>
        <time>2020-02-08T11:02:21Z</time>
      </trkpt>
      <trkpt lat="56.874407718849" lon="14.839189360948">
        <ele>185.8</ele>
        <time>2020-02-08T11:02:22Z</time>
      </trkpt>
      <trkpt lat="56.874363294779" lon="14.839205035101">
        <ele>185.6</ele>
        <time>2020-02-08T11:02:25Z</time>
      </trkpt>
      <trkpt lat="56.874290958982" lon="14.839193635717">
        <ele>185.6</ele>
        <time>2020-02-08T11:02:31Z</time>
      </trkpt>
      <trkpt lat="56.874236476632" lon="14.839225738394">
        <ele>185.8</ele>
        <time>2020-02-08T11:02:34Z</time>
      </trkpt>
      <trkpt lat="56.874198422806" lon="14.839237305416">
        <ele>185.8</ele>
        <time>2020-02-08T11:02:38Z</time>
      </trkpt>
      <trkpt lat="56.874145533017" lon="14.839190702052">
        <ele>185.2</ele>
        <time>2020-02-08T11:02:42Z</time>
      </trkpt>
      <trkpt lat="56.874103120603" lon="14.839188774215">
        <ele>185</ele>
        <time>2020-02-08T11:02:45Z</time>
      </trkpt>
      <trkpt lat="56.874029527521" lon="14.83920763349">
        <ele>185.6</ele>
        <time>2020-02-08T11:02:49Z</time>
      </trkpt>
      <trkpt lat="56.874014440101" lon="14.839214255191">
        <ele>185.8</ele>
        <time>2020-02-08T11:02:50Z</time>
      </trkpt>
      <trkpt lat="56.873930788739" lon="14.839246106411">
        <ele>186.4</ele>
        <time>2020-02-08T11:02:55Z</time>
      </trkpt>
      <trkpt lat="56.873889465972" lon="14.839253482483">
        <ele>186.4</ele>
        <time>2020-02-08T11:02:58Z</time>
      </trkpt>
      <trkpt lat="56.87385778239" lon="14.839294972888">
        <ele>186.2</ele>
        <time>2020-02-08T11:03:02Z</time>
      </trkpt>
      <trkpt lat="56.873852585612" lon="14.8393073781">
        <ele>186.4</ele>
        <time>2020-02-08T11:03:03Z</time>
      </trkpt>
      <trkpt lat="56.873824757704" lon="14.839330176868">
        <ele>187</ele>
        <time>2020-02-08T11:03:05Z</time>
      </trkpt>
      <trkpt lat="56.87381252013" lon="14.839332691438">
        <ele>187.4</ele>
        <time>2020-02-08T11:03:06Z</time>
      </trkpt>
      <trkpt lat="56.873743620912" lon="14.839320872959">
        <ele>187</ele>
        <time>2020-02-08T11:03:12Z</time>
      </trkpt>
      <trkpt lat="56.873724761637" lon="14.839446685278">
        <ele>186.8</ele>
        <time>2020-02-08T11:03:18Z</time>
      </trkpt>
      <trkpt lat="56.873723252895" lon="14.839466969476">
        <ele>186.8</ele>
        <time>2020-02-08T11:03:19Z</time>
      </trkpt>
      <trkpt lat="56.873727779121" lon="14.839534695228">
        <ele>188.2</ele>
        <time>2020-02-08T11:03:23Z</time>
      </trkpt>
      <trkpt lat="56.873716882651" lon="14.839595966917">
        <ele>188.8</ele>
        <time>2020-02-08T11:03:27Z</time>
      </trkpt>
      <trkpt lat="56.87370690819" lon="14.839619939151">
        <ele>189</ele>
        <time>2020-02-08T11:03:28Z</time>
      </trkpt>
      <trkpt lat="56.873700035032" lon="14.839650784543">
        <ele>189.4</ele>
        <time>2020-02-08T11:03:29Z</time>
      </trkpt>
      <trkpt lat="56.873693329512" lon="14.839695543889">
        <ele>190.4</ele>
        <time>2020-02-08T11:03:31Z</time>
      </trkpt>
      <trkpt lat="56.873688887105" lon="14.839709290205">
        <ele>190.8</ele>
        <time>2020-02-08T11:03:32Z</time>
      </trkpt>
      <trkpt lat="56.873686540173" lon="14.839724461444">
        <ele>191</ele>
        <time>2020-02-08T11:03:33Z</time>
      </trkpt>
      <trkpt lat="56.873678912644" lon="14.839780536355">
        <ele>191.2</ele>
        <time>2020-02-08T11:03:36Z</time>
      </trkpt>
      <trkpt lat="56.873654605134" lon="14.839927051967">
        <ele>191.2</ele>
        <time>2020-02-08T11:03:40Z</time>
      </trkpt>
      <trkpt lat="56.873581934061" lon="14.84011371688">
        <ele>189</ele>
        <time>2020-02-08T11:03:45Z</time>
      </trkpt>
      <trkpt lat="56.873561985139" lon="14.840148585584">
        <ele>188</ele>
        <time>2020-02-08T11:03:47Z</time>
      </trkpt>
      <trkpt lat="56.873543796416" lon="14.840186807048">
        <ele>188</ele>
        <time>2020-02-08T11:03:49Z</time>
      </trkpt>
      <trkpt lat="56.873532313213" lon="14.840212958576">
        <ele>188</ele>
        <time>2020-02-08T11:03:50Z</time>
      </trkpt>
      <trkpt lat="56.873497947423" lon="14.840334496126">
        <ele>188.4</ele>
        <time>2020-02-08T11:03:53Z</time>
      </trkpt>
      <trkpt lat="56.873482440908" lon="14.840393253245">
        <ele>190</ele>
        <time>2020-02-08T11:03:55Z</time>
      </trkpt>
      <trkpt lat="56.873471879714" lon="14.840436084754">
        <ele>190.8</ele>
        <time>2020-02-08T11:03:57Z</time>
      </trkpt>
      <trkpt lat="56.873436759553" lon="14.840534739717">
        <ele>190.4</ele>
        <time>2020-02-08T11:04:03Z</time>
      </trkpt>
      <trkpt lat="56.873424102884" lon="14.84057053043">
        <ele>190.6</ele>
        <time>2020-02-08T11:04:05Z</time>
      </trkpt>
      <trkpt lat="56.873410859482" lon="14.840626521522">
        <ele>191.2</ele>
        <time>2020-02-08T11:04:07Z</time>
      </trkpt>
      <trkpt lat="56.873403315772" lon="14.840658708018">
        <ele>191.4</ele>
        <time>2020-02-08T11:04:08Z</time>
      </trkpt>
      <trkpt lat="56.873361657729" lon="14.84082869295">
        <ele>191.2</ele>
        <time>2020-02-08T11:04:14Z</time>
      </trkpt>
      <trkpt lat="56.873347911413" lon="14.8409167029">
        <ele>191.4</ele>
        <time>2020-02-08T11:04:17Z</time>
      </trkpt>
      <trkpt lat="56.873345480662" lon="14.841000102805">
        <ele>191.8</ele>
        <time>2020-02-08T11:04:20Z</time>
      </trkpt>
      <trkpt lat="56.87333307545" lon="14.841092136067">
        <ele>192.4</ele>
        <time>2020-02-08T11:04:23Z</time>
      </trkpt>
      <trkpt lat="56.873331734346" lon="14.841160532371">
        <ele>193</ele>
        <time>2020-02-08T11:04:25Z</time>
      </trkpt>
      <trkpt lat="56.873335673839" lon="14.841214344169">
        <ele>193.6</ele>
        <time>2020-02-08T11:04:27Z</time>
      </trkpt>
      <trkpt lat="56.87333978097" lon="14.84125533166">
        <ele>194</ele>
        <time>2020-02-08T11:04:29Z</time>
      </trkpt>
      <trkpt lat="56.873329052138" lon="14.841379132323">
        <ele>194.2</ele>
        <time>2020-02-08T11:04:34Z</time>
      </trkpt>
      <trkpt lat="56.873327543396" lon="14.841475691811">
        <ele>194.6</ele>
        <time>2020-02-08T11:04:38Z</time>
      </trkpt>
      <trkpt lat="56.873324274455" lon="14.841521959899">
        <ele>194.8</ele>
        <time>2020-02-08T11:04:40Z</time>
      </trkpt>
      <trkpt lat="56.873309522311" lon="14.841623464708">
        <ele>195.8</ele>
        <time>2020-02-08T11:04:43Z</time>
      </trkpt>
      <trkpt lat="56.873315808736" lon="14.841688424433">
        <ele>196.6</ele>
        <time>2020-02-08T11:04:45Z</time>
      </trkpt>
      <trkpt lat="56.873314383813" lon="14.841774925641">
        <ele>196.8</ele>
        <time>2020-02-08T11:04:47Z</time>
      </trkpt>
      <trkpt lat="56.873299044936" lon="14.842133251866">
        <ele>197.6</ele>
        <time>2020-02-08T11:04:57Z</time>
      </trkpt>
      <trkpt lat="56.873294183434" lon="14.842210952079">
        <ele>198</ele>
        <time>2020-02-08T11:04:59Z</time>
      </trkpt>
      <trkpt lat="56.873264679146" lon="14.84254446788">
        <ele>197.2</ele>
        <time>2020-02-08T11:05:08Z</time>
      </trkpt>
      <trkpt lat="56.873260572015" lon="14.84256709901">
        <ele>196.8</ele>
        <time>2020-02-08T11:05:09Z</time>
      </trkpt>
      <trkpt lat="56.873239365808" lon="14.842797349803">
        <ele>197.2</ele>
        <time>2020-02-08T11:05:16Z</time>
      </trkpt>
      <trkpt lat="56.873236515962" lon="14.84288980216">
        <ele>197.4</ele>
        <time>2020-02-08T11:05:20Z</time>
      </trkpt>
      <trkpt lat="56.873185386372" lon="14.842972112418">
        <ele>197.4</ele>
        <time>2020-02-08T11:05:26Z</time>
      </trkpt>
      <trkpt lat="56.873181614517" lon="14.84306498387">
        <ele>197</ele>
        <time>2020-02-08T11:05:35Z</time>
      </trkpt>
      <trkpt lat="56.873179099947" lon="14.843083172593">
        <ele>196.8</ele>
        <time>2020-02-08T11:05:37Z</time>
      </trkpt>
      <trkpt lat="56.873146661994" lon="14.843117370745">
        <ele>196.6</ele>
        <time>2020-02-08T11:05:40Z</time>
      </trkpt>
      <trkpt lat="56.873101315915" lon="14.843173697113">
        <ele>196</ele>
        <time>2020-02-08T11:05:43Z</time>
      </trkpt>
      <trkpt lat="56.87308916216" lon="14.84320077065">
        <ele>195.8</ele>
        <time>2020-02-08T11:05:44Z</time>
      </trkpt>
      <trkpt lat="56.873054544913" lon="14.843256761742">
        <ele>195.4</ele>
        <time>2020-02-08T11:05:47Z</time>
      </trkpt>
      <trkpt lat="56.873022023141" lon="14.843295067025">
        <ele>195.2</ele>
        <time>2020-02-08T11:05:49Z</time>
      </trkpt>
      <trkpt lat="56.872992015939" lon="14.843319123078">
        <ele>195.2</ele>
        <time>2020-02-08T11:05:51Z</time>
      </trkpt>
      <trkpt lat="56.872926888576" lon="14.843394895454">
        <ele>195</ele>
        <time>2020-02-08T11:05:57Z</time>
      </trkpt>
      <trkpt lat="56.872868634371" lon="14.84346396231">
        <ele>195</ele>
        <time>2020-02-08T11:06:01Z</time>
      </trkpt>
      <trkpt lat="56.872845751784" lon="14.843505201258">
        <ele>194.8</ele>
        <time>2020-02-08T11:06:03Z</time>
      </trkpt>
      <trkpt lat="56.872830245269" lon="14.843537471573">
        <ele>194.8</ele>
        <time>2020-02-08T11:06:04Z</time>
      </trkpt>
      <trkpt lat="56.872811218356" lon="14.843570077164">
        <ele>194.8</ele>
        <time>2020-02-08T11:06:05Z</time>
      </trkpt>
      <trkpt lat="56.872760424042" lon="14.843640568943">
        <ele>193.8</ele>
        <time>2020-02-08T11:06:08Z</time>
      </trkpt>
      <trkpt lat="56.87274718064" lon="14.843666720471">
        <ele>193.6</ele>
        <time>2020-02-08T11:06:09Z</time>
      </trkpt>
      <trkpt lat="56.872709545909" lon="14.843725729047">
        <ele>193.6</ele>
        <time>2020-02-08T11:06:12Z</time>
      </trkpt>
      <trkpt lat="56.872660679432" lon="14.843740648829">
        <ele>194</ele>
        <time>2020-02-08T11:06:16Z</time>
      </trkpt>
      <trkpt lat="56.872625726909" lon="14.843746013245">
        <ele>194</ele>
        <time>2020-02-08T11:06:18Z</time>
      </trkpt>
      <trkpt lat="56.872560515727" lon="14.843740732648">
        <ele>194</ele>
        <time>2020-02-08T11:06:22Z</time>
      </trkpt>
      <trkpt lat="56.872522294263" lon="14.843718352975">
        <ele>194</ele>
        <time>2020-02-08T11:06:25Z</time>
      </trkpt>
      <trkpt lat="56.872480803858" lon="14.843651465413">
        <ele>194.8</ele>
        <time>2020-02-08T11:06:29Z</time>
      </trkpt>
      <trkpt lat="56.872477115822" lon="14.843615590881">
        <ele>194.8</ele>
        <time>2020-02-08T11:06:30Z</time>
      </trkpt>
      <trkpt lat="56.872479714211" lon="14.843543087446">
        <ele>195.2</ele>
        <time>2020-02-08T11:06:32Z</time>
      </trkpt>
      <trkpt lat="56.872519276779" lon="14.843485839069">
        <ele>195.8</ele>
        <time>2020-02-08T11:06:35Z</time>
      </trkpt>
      <trkpt lat="56.872525311747" lon="14.843464129948">
        <ele>196</ele>
        <time>2020-02-08T11:06:36Z</time>
      </trkpt>
      <trkpt lat="56.872515504924" lon="14.843351058117">
        <ele>196.2</ele>
        <time>2020-02-08T11:06:40Z</time>
      </trkpt>
      <trkpt lat="56.872506117196" lon="14.843313255748">
        <ele>196.4</ele>
        <time>2020-02-08T11:06:42Z</time>
      </trkpt>
      <trkpt lat="56.872500501323" lon="14.843291127532">
        <ele>196.4</ele>
        <time>2020-02-08T11:06:43Z</time>
      </trkpt>
      <trkpt lat="56.872488515206" lon="14.84324603291">
        <ele>196.6</ele>
        <time>2020-02-08T11:06:45Z</time>
      </trkpt>
      <trkpt lat="56.872425902413" lon="14.843114185623">
        <ele>196.8</ele>
        <time>2020-02-08T11:06:48Z</time>
      </trkpt>
      <trkpt lat="56.87236245143" lon="14.843049225898">
        <ele>196.8</ele>
        <time>2020-02-08T11:06:52Z</time>
      </trkpt>
      <trkpt lat="56.872342670146" lon="14.843047465699">
        <ele>196.8</ele>
        <time>2020-02-08T11:06:54Z</time>
      </trkpt>
      <trkpt lat="56.872311573297" lon="14.843058194531">
        <ele>197</ele>
        <time>2020-02-08T11:06:57Z</time>
      </trkpt>
      <trkpt lat="56.872259186422" lon="14.843089961932">
        <ele>197.2</ele>
        <time>2020-02-08T11:07:03Z</time>
      </trkpt>
      <trkpt lat="56.872219791492" lon="14.843105887542">
        <ele>197.8</ele>
        <time>2020-02-08T11:07:07Z</time>
      </trkpt>
      <trkpt lat="56.872204284977" lon="14.84309264414">
        <ele>198.2</ele>
        <time>2020-02-08T11:07:08Z</time>
      </trkpt>
      <trkpt lat="56.872179055458" lon="14.843087028267">
        <ele>198.8</ele>
        <time>2020-02-08T11:07:10Z</time>
      </trkpt>
      <trkpt lat="56.872157011061" lon="14.84309767328">
        <ele>199</ele>
        <time>2020-02-08T11:07:12Z</time>
      </trkpt>
      <trkpt lat="56.872148377704" lon="14.843105384628">
        <ele>199.2</ele>
        <time>2020-02-08T11:07:13Z</time>
      </trkpt>
      <trkpt lat="56.872113089905" lon="14.843105887542">
        <ele>199.4</ele>
        <time>2020-02-08T11:07:17Z</time>
      </trkpt>
      <trkpt lat="56.872080400495" lon="14.843078562548">
        <ele>199.2</ele>
        <time>2020-02-08T11:07:19Z</time>
      </trkpt>
      <trkpt lat="56.872042514307" lon="14.843062301662">
        <ele>199.2</ele>
        <time>2020-02-08T11:07:21Z</time>
      </trkpt>
      <trkpt lat="56.871980572066" lon="14.843032797374">
        <ele>199</ele>
        <time>2020-02-08T11:07:26Z</time>
      </trkpt>
      <trkpt lat="56.871926760268" lon="14.843002035801">
        <ele>199.2</ele>
        <time>2020-02-08T11:07:29Z</time>
      </trkpt>
      <trkpt lat="56.871828189124" lon="14.842908577616">
        <ele>199.2</ele>
        <time>2020-02-08T11:07:36Z</time>
      </trkpt>
      <trkpt lat="56.871772784765" lon="14.842853676171">
        <ele>198.8</ele>
        <time>2020-02-08T11:07:41Z</time>
      </trkpt>
      <trkpt lat="56.871745375952" lon="14.842834313982">
        <ele>198.6</ele>
        <time>2020-02-08T11:07:43Z</time>
      </trkpt>
      <trkpt lat="56.871692234706" lon="14.842782430021">
        <ele>198.6</ele>
        <time>2020-02-08T11:07:47Z</time>
      </trkpt>
      <trkpt lat="56.871664490617" lon="14.84275150081">
        <ele>199.4</ele>
        <time>2020-02-08T11:07:50Z</time>
      </trkpt>
      <trkpt lat="56.871613696303" lon="14.842688049827">
        <ele>199.4</ele>
        <time>2020-02-08T11:07:54Z</time>
      </trkpt>
      <trkpt lat="56.871592909191" lon="14.842658126444">
        <ele>199.4</ele>
        <time>2020-02-08T11:07:56Z</time>
      </trkpt>
      <trkpt lat="56.871535744633" lon="14.842602219171">
        <ele>199.4</ele>
        <time>2020-02-08T11:07:59Z</time>
      </trkpt>
      <trkpt lat="56.871500624472" lon="14.842566177001">
        <ele>199.4</ele>
        <time>2020-02-08T11:08:02Z</time>
      </trkpt>
      <trkpt lat="56.871430970883" lon="14.842514209221">
        <ele>198.6</ele>
        <time>2020-02-08T11:08:07Z</time>
      </trkpt>
      <trkpt lat="56.871413201255" lon="14.84256626082">
        <ele>198.4</ele>
        <time>2020-02-08T11:08:10Z</time>
      </trkpt>
      <trkpt lat="56.871376320895" lon="14.842632561649">
        <ele>198.4</ele>
        <time>2020-02-08T11:08:13Z</time>
      </trkpt>
      <trkpt lat="56.871357293982" lon="14.842668352362">
        <ele>198.4</ele>
        <time>2020-02-08T11:08:15Z</time>
      </trkpt>
      <trkpt lat="56.871348325349" lon="14.842694336252">
        <ele>198.2</ele>
        <time>2020-02-08T11:08:16Z</time>
      </trkpt>
      <trkpt lat="56.871337847974" lon="14.842749572973">
        <ele>197.2</ele>
        <time>2020-02-08T11:08:19Z</time>
      </trkpt>
      <trkpt lat="56.871352097204" lon="14.84287890569">
        <ele>196.2</ele>
        <time>2020-02-08T11:08:30Z</time>
      </trkpt>
      <trkpt lat="56.871385876261" lon="14.84294763727">
        <ele>196.6</ele>
        <time>2020-02-08T11:08:34Z</time>
      </trkpt>
      <trkpt lat="56.871442621724" lon="14.843279225234">
        <ele>197</ele>
        <time>2020-02-08T11:08:44Z</time>
      </trkpt>
      <trkpt lat="56.871502384671" lon="14.843451976193">
        <ele>197</ele>
        <time>2020-02-08T11:08:49Z</time>
      </trkpt>
      <trkpt lat="56.87151755591" lon="14.843481815757">
        <ele>196.6</ele>
        <time>2020-02-08T11:08:51Z</time>
      </trkpt>
      <trkpt lat="56.871534235891" lon="14.843505368896">
        <ele>196.2</ele>
        <time>2020-02-08T11:08:53Z</time>
      </trkpt>
      <trkpt lat="56.871532559511" lon="14.843520875411">
        <ele>196.2</ele>
        <time>2020-02-08T11:08:54Z</time>
      </trkpt>
      <trkpt lat="56.871528284742" lon="14.843537387754">
        <ele>196.2</ele>
        <time>2020-02-08T11:08:55Z</time>
      </trkpt>
      <trkpt lat="56.87152342324" lon="14.843551385527">
        <ele>196.2</ele>
        <time>2020-02-08T11:08:56Z</time>
      </trkpt>
      <trkpt lat="56.871481429921" lon="14.843630259206">
        <ele>196.2</ele>
        <time>2020-02-08T11:09:01Z</time>
      </trkpt>
      <trkpt lat="56.871433233996" lon="14.843693961646">
        <ele>196.6</ele>
        <time>2020-02-08T11:09:05Z</time>
      </trkpt>
      <trkpt lat="56.8713842837" lon="14.843746348521">
        <ele>197</ele>
        <time>2020-02-08T11:09:08Z</time>
      </trkpt>
      <trkpt lat="56.871352600118" lon="14.843792113695">
        <ele>197.2</ele>
        <time>2020-02-08T11:09:10Z</time>
      </trkpt>
      <trkpt lat="56.871176161123" lon="14.843993027838">
        <ele>197.2</ele>
        <time>2020-02-08T11:09:18Z</time>
      </trkpt>
      <trkpt lat="56.871151602156" lon="14.84400794762">
        <ele>197</ele>
        <time>2020-02-08T11:09:19Z</time>
      </trkpt>
      <trkpt lat="56.87107750616" lon="14.844088078584">
        <ele>196</ele>
        <time>2020-02-08T11:09:24Z</time>
      </trkpt>
      <trkpt lat="56.871068788984" lon="14.844098891235">
        <ele>196</ele>
        <time>2020-02-08T11:09:25Z</time>
      </trkpt>
      <trkpt lat="56.871043894741" lon="14.844166114073">
        <ele>195.8</ele>
        <time>2020-02-08T11:09:29Z</time>
      </trkpt>
      <trkpt lat="56.870982036319" lon="14.844292513125">
        <ele>196.6</ele>
        <time>2020-02-08T11:09:33Z</time>
      </trkpt>
      <trkpt lat="56.870960075741" lon="14.844326795096">
        <ele>196.8</ele>
        <time>2020-02-08T11:09:34Z</time>
      </trkpt>
      <trkpt lat="56.870936774059" lon="14.844358981592">
        <ele>197.2</ele>
        <time>2020-02-08T11:09:35Z</time>
      </trkpt>
      <trkpt lat="56.870807692799" lon="14.844634410826">
        <ele>196.8</ele>
        <time>2020-02-08T11:09:42Z</time>
      </trkpt>
      <trkpt lat="56.870799981451" lon="14.844676236507">
        <ele>196.8</ele>
        <time>2020-02-08T11:09:43Z</time>
      </trkpt>
      <trkpt lat="56.870760083607" lon="14.844843455412">
        <ele>197.2</ele>
        <time>2020-02-08T11:09:47Z</time>
      </trkpt>
      <trkpt lat="56.870606108104" lon="14.845035484741">
        <ele>196</ele>
        <time>2020-02-08T11:09:53Z</time>
      </trkpt>
      <trkpt lat="56.870515835041" lon="14.845092062566">
        <ele>195.6</ele>
        <time>2020-02-08T11:09:59Z</time>
      </trkpt>
      <trkpt lat="56.870494293558" lon="14.845103210493">
        <ele>195.6</ele>
        <time>2020-02-08T11:10:00Z</time>
      </trkpt>
      <trkpt lat="56.870451126773" lon="14.84512609308">
        <ele>195.6</ele>
        <time>2020-02-08T11:10:02Z</time>
      </trkpt>
      <trkpt lat="56.870333528716" lon="14.845258108005">
        <ele>195.4</ele>
        <time>2020-02-08T11:10:11Z</time>
      </trkpt>
      <trkpt lat="56.870290026655" lon="14.845261293127">
        <ele>195.8</ele>
        <time>2020-02-08T11:10:16Z</time>
      </trkpt>
      <trkpt lat="56.870225821301" lon="14.845255844892">
        <ele>195.8</ele>
        <time>2020-02-08T11:10:20Z</time>
      </trkpt>
      <trkpt lat="56.870192126063" lon="14.845262466593">
        <ele>195.2</ele>
        <time>2020-02-08T11:10:23Z</time>
      </trkpt>
      <trkpt lat="56.870179469394" lon="14.845246038069">
        <ele>195</ele>
        <time>2020-02-08T11:10:25Z</time>
      </trkpt>
      <trkpt lat="56.870129429451" lon="14.845190466072">
        <ele>195</ele>
        <time>2020-02-08T11:10:30Z</time>
      </trkpt>
      <trkpt lat="56.870099170792" lon="14.845173366996">
        <ele>195.2</ele>
        <time>2020-02-08T11:10:32Z</time>
      </trkpt>
      <trkpt lat="56.870073773635" lon="14.8451411805">
        <ele>195.2</ele>
        <time>2020-02-08T11:10:34Z</time>
      </trkpt>
      <trkpt lat="56.86999372649" lon="14.845085440865">
        <ele>196.2</ele>
        <time>2020-02-08T11:10:40Z</time>
      </trkpt>
      <trkpt lat="56.869971514455" lon="14.8450070701">
        <ele>196.8</ele>
        <time>2020-02-08T11:11:06Z</time>
      </trkpt>
      <trkpt lat="56.87001132848" lon="14.844993826698">
        <ele>197</ele>
        <time>2020-02-08T11:11:08Z</time>
      </trkpt>
      <trkpt lat="56.870025493891" lon="14.844985696255">
        <ele>197.2</ele>
        <time>2020-02-08T11:11:09Z</time>
      </trkpt>
      <trkpt lat="56.870064050631" lon="14.844971363206">
        <ele>198.2</ele>
        <time>2020-02-08T11:11:11Z</time>
      </trkpt>
      <trkpt lat="56.870087100856" lon="14.844949737904">
        <ele>199.8</ele>
        <time>2020-02-08T11:11:13Z</time>
      </trkpt>
      <trkpt lat="56.870099841344" lon="14.844935740131">
        <ele>200.4</ele>
        <time>2020-02-08T11:11:14Z</time>
      </trkpt>
      <trkpt lat="56.870117443334" lon="14.844890058776">
        <ele>201</ele>
        <time>2020-02-08T11:11:16Z</time>
      </trkpt>
      <trkpt lat="56.870133201306" lon="14.844809005803">
        <ele>202.4</ele>
        <time>2020-02-08T11:11:19Z</time>
      </trkpt>
      <trkpt lat="56.87014124793" lon="14.844779250058">
        <ele>203</ele>
        <time>2020-02-08T11:11:21Z</time>
      </trkpt>
      <trkpt lat="56.870138565722" lon="14.844716050532">
        <ele>203.6</ele>
        <time>2020-02-08T11:11:24Z</time>
      </trkpt>
      <trkpt lat="56.870140912654" lon="14.844625442193">
        <ele>204</ele>
        <time>2020-02-08T11:11:27Z</time>
      </trkpt>
      <trkpt lat="56.870210733881" lon="14.844504910471">
        <ele>203.8</ele>
        <time>2020-02-08T11:11:33Z</time>
      </trkpt>
      <trkpt lat="56.870257840159" lon="14.844406423146">
        <ele>203</ele>
        <time>2020-02-08T11:11:38Z</time>
      </trkpt>
      <trkpt lat="56.870290194293" lon="14.844335847548">
        <ele>202.2</ele>
        <time>2020-02-08T11:11:41Z</time>
      </trkpt>
      <trkpt lat="56.870321039685" lon="14.844303912509">
        <ele>201</ele>
        <time>2020-02-08T11:11:43Z</time>
      </trkpt>
      <trkpt lat="56.870363787375" lon="14.844190253945">
        <ele>200.6</ele>
        <time>2020-02-08T11:11:47Z</time>
      </trkpt>
      <trkpt lat="56.870334534544" lon="14.8438922774">
        <ele>200</ele>
        <time>2020-02-08T11:11:55Z</time>
      </trkpt>
      <trkpt lat="56.870333444897" lon="14.843807955486">
        <ele>199</ele>
        <time>2020-02-08T11:11:58Z</time>
      </trkpt>
      <trkpt lat="56.870348448498" lon="14.843786916917">
        <ele>198.8</ele>
        <time>2020-02-08T11:11:59Z</time>
      </trkpt>
      <trkpt lat="56.870408881997" lon="14.843607125162">
        <ele>199.2</ele>
        <time>2020-02-08T11:12:06Z</time>
      </trkpt>
      <trkpt lat="56.870391447645" lon="14.843562449635">
        <ele>200</ele>
        <time>2020-02-08T11:12:08Z</time>
      </trkpt>
      <trkpt lat="56.870356830398" lon="14.843468320898">
        <ele>200.4</ele>
        <time>2020-02-08T11:12:13Z</time>
      </trkpt>
      <trkpt lat="56.870342916444" lon="14.843438313696">
        <ele>201.2</ele>
        <time>2020-02-08T11:12:15Z</time>
      </trkpt>
      <trkpt lat="56.870335456553" lon="14.843417275127">
        <ele>201.6</ele>
        <time>2020-02-08T11:12:16Z</time>
      </trkpt>
      <trkpt lat="56.870324727721" lon="14.843391123599">
        <ele>202.4</ele>
        <time>2020-02-08T11:12:17Z</time>
      </trkpt>
      <trkpt lat="56.870312406328" lon="14.84337846693">
        <ele>203.2</ele>
        <time>2020-02-08T11:12:18Z</time>
      </trkpt>
      <trkpt lat="56.870304192066" lon="14.843364385338">
        <ele>204.2</ele>
        <time>2020-02-08T11:12:19Z</time>
      </trkpt>
      <trkpt lat="56.870273849588" lon="14.843335132507">
        <ele>205.6</ele>
        <time>2020-02-08T11:12:22Z</time>
      </trkpt>
      <trkpt lat="56.870260773824" lon="14.843336892706">
        <ele>206.2</ele>
        <time>2020-02-08T11:12:23Z</time>
      </trkpt>
      <trkpt lat="56.870251302277" lon="14.843332450299">
        <ele>206.8</ele>
        <time>2020-02-08T11:12:24Z</time>
      </trkpt>
      <trkpt lat="56.870214924831" lon="14.843314680671">
        <ele>208</ele>
        <time>2020-02-08T11:12:27Z</time>
      </trkpt>
      <trkpt lat="56.870184163258" lon="14.8433055444">
        <ele>209.4</ele>
        <time>2020-02-08T11:12:30Z</time>
      </trkpt>
      <trkpt lat="56.870172512417" lon="14.843307807513">
        <ele>209.6</ele>
        <time>2020-02-08T11:12:32Z</time>
      </trkpt>
      <trkpt lat="56.870153401685" lon="14.843093733787">
        <ele>209.4</ele>
        <time>2020-02-08T11:13:01Z</time>
      </trkpt>
      <trkpt lat="56.870176284272" lon="14.843134218364">
        <ele>209.4</ele>
        <time>2020-02-08T11:17:59Z</time>
      </trkpt>
      <trkpt lat="56.870120796094" lon="14.843303197468">
        <ele>209.6</ele>
        <time>2020-02-08T11:18:38Z</time>
      </trkpt>
      <trkpt lat="56.870149462192" lon="14.843283416184">
        <ele>209.6</ele>
        <time>2020-02-08T11:18:39Z</time>
      </trkpt>
      <trkpt lat="56.870289942836" lon="14.843206386523">
        <ele>208.2</ele>
        <time>2020-02-08T11:18:45Z</time>
      </trkpt>
      <trkpt lat="56.870304611161" lon="14.843182498108">
        <ele>206.8</ele>
        <time>2020-02-08T11:18:47Z</time>
      </trkpt>
      <trkpt lat="56.870319530943" lon="14.843160286073">
        <ele>205.6</ele>
        <time>2020-02-08T11:18:49Z</time>
      </trkpt>
      <trkpt lat="56.870324643902" lon="14.843152071811">
        <ele>204.4</ele>
        <time>2020-02-08T11:18:51Z</time>
      </trkpt>
      <trkpt lat="56.87033403163" lon="14.843134469821">
        <ele>203.2</ele>
        <time>2020-02-08T11:18:53Z</time>
      </trkpt>
      <trkpt lat="56.870373678017" lon="14.843133044898">
        <ele>202.6</ele>
        <time>2020-02-08T11:18:55Z</time>
      </trkpt>
      <trkpt lat="56.870428495643" lon="14.843099098203">
        <ele>202.2</ele>
        <time>2020-02-08T11:18:56Z</time>
      </trkpt>
      <trkpt lat="56.870456994103" lon="14.843067330802">
        <ele>201.6</ele>
        <time>2020-02-08T11:18:57Z</time>
      </trkpt>
      <trkpt lat="56.870472752075" lon="14.843034222297">
        <ele>201</ele>
        <time>2020-02-08T11:18:58Z</time>
      </trkpt>
      <trkpt lat="56.870525474226" lon="14.842958114645">
        <ele>199.6</ele>
        <time>2020-02-08T11:19:00Z</time>
      </trkpt>
      <trkpt lat="56.87061650166" lon="14.842910002539">
        <ele>198.4</ele>
        <time>2020-02-08T11:19:03Z</time>
      </trkpt>
      <trkpt lat="56.870700907393" lon="14.842794667595">
        <ele>197.4</ele>
        <time>2020-02-08T11:19:08Z</time>
      </trkpt>
      <trkpt lat="56.870729070577" lon="14.842647649069">
        <ele>196.2</ele>
        <time>2020-02-08T11:19:12Z</time>
      </trkpt>
      <trkpt lat="56.870729238215" lon="14.842490488444">
        <ele>195.4</ele>
        <time>2020-02-08T11:19:16Z</time>
      </trkpt>
      <trkpt lat="56.870739883228" lon="14.84238269721">
        <ele>195.4</ele>
        <time>2020-02-08T11:19:19Z</time>
      </trkpt>
      <trkpt lat="56.870781960366" lon="14.842275325071">
        <ele>195.2</ele>
        <time>2020-02-08T11:19:22Z</time>
      </trkpt>
      <trkpt lat="56.870818421631" lon="14.842135598798">
        <ele>195</ele>
        <time>2020-02-08T11:19:26Z</time>
      </trkpt>
      <trkpt lat="56.870852535964" lon="14.842043314079">
        <ele>195.2</ele>
        <time>2020-02-08T11:19:28Z</time>
      </trkpt>
      <trkpt lat="56.87089561893" lon="14.841953376292">
        <ele>196.4</ele>
        <time>2020-02-08T11:19:30Z</time>
      </trkpt>
      <trkpt lat="56.870944904502" lon="14.841863438505">
        <ele>197.8</ele>
        <time>2020-02-08T11:19:32Z</time>
      </trkpt>
      <trkpt lat="56.870998045748" lon="14.841799568427">
        <ele>198.2</ele>
        <time>2020-02-08T11:19:34Z</time>
      </trkpt>
      <trkpt lat="56.871053282469" lon="14.841524893564">
        <ele>196.6</ele>
        <time>2020-02-08T11:19:40Z</time>
      </trkpt>
      <trkpt lat="56.87108337349" lon="14.841345269447">
        <ele>195.4</ele>
        <time>2020-02-08T11:19:44Z</time>
      </trkpt>
      <trkpt lat="56.871090498105" lon="14.84122431863">
        <ele>194.4</ele>
        <time>2020-02-08T11:19:47Z</time>
      </trkpt>
      <trkpt lat="56.871095694883" lon="14.841170758289">
        <ele>194.2</ele>
        <time>2020-02-08T11:19:49Z</time>
      </trkpt>
      <trkpt lat="56.871137185288" lon="14.841127004771">
        <ele>194</ele>
        <time>2020-02-08T11:19:55Z</time>
      </trkpt>
      <trkpt lat="56.871197954063" lon="14.841170255375">
        <ele>194.2</ele>
        <time>2020-02-08T11:20:13Z</time>
      </trkpt>
      <trkpt lat="56.871186889955" lon="14.841327583638">
        <ele>195.8</ele>
        <time>2020-02-08T11:20:16Z</time>
      </trkpt>
      <trkpt lat="56.871179430064" lon="14.841369409319">
        <ele>196.2</ele>
        <time>2020-02-08T11:20:17Z</time>
      </trkpt>
      <trkpt lat="56.871175322933" lon="14.841383826187">
        <ele>196.2</ele>
        <time>2020-02-08T11:20:19Z</time>
      </trkpt>
      <trkpt lat="56.871185213575" lon="14.84135339989">
        <ele>195.6</ele>
        <time>2020-02-08T11:20:22Z</time>
      </trkpt>
      <trkpt lat="56.871211448922" lon="14.841281567007">
        <ele>195.4</ele>
        <time>2020-02-08T11:20:24Z</time>
      </trkpt>
      <trkpt lat="56.871238103364" lon="14.841182157673">
        <ele>195</ele>
        <time>2020-02-08T11:20:27Z</time>
      </trkpt>
      <trkpt lat="56.871227877446" lon="14.841165058597">
        <ele>194.6</ele>
        <time>2020-02-08T11:20:28Z</time>
      </trkpt>
      <trkpt lat="56.871193092561" lon="14.841108061677">
        <ele>194.2</ele>
        <time>2020-02-08T11:20:32Z</time>
      </trkpt>
      <trkpt lat="56.871097371263" lon="14.841054501336">
        <ele>193.8</ele>
        <time>2020-02-08T11:20:36Z</time>
      </trkpt>
      <trkpt lat="56.871017575575" lon="14.840985266842">
        <ele>193.8</ele>
        <time>2020-02-08T11:20:40Z</time>
      </trkpt>
      <trkpt lat="56.870981868681" lon="14.84097118525">
        <ele>193.4</ele>
        <time>2020-02-08T11:20:42Z</time>
      </trkpt>
      <trkpt lat="56.870942976665" lon="14.840934556347">
        <ele>192.6</ele>
        <time>2020-02-08T11:20:45Z</time>
      </trkpt>
      <trkpt lat="56.870900061337" lon="14.84090999738">
        <ele>192.4</ele>
        <time>2020-02-08T11:20:48Z</time>
      </trkpt>
      <trkpt lat="56.870799143261" lon="14.84075409404">
        <ele>191.4</ele>
        <time>2020-02-08T11:21:01Z</time>
      </trkpt>
      <trkpt lat="56.8707640231" lon="14.840665664995">
        <ele>190.6</ele>
        <time>2020-02-08T11:21:06Z</time>
      </trkpt>
      <trkpt lat="56.870796544872" lon="14.84049593152">
        <ele>190.6</ele>
        <time>2020-02-08T11:21:26Z</time>
      </trkpt>
      <trkpt lat="56.870839292562" lon="14.840465672861">
        <ele>191</ele>
        <time>2020-02-08T11:21:29Z</time>
      </trkpt>
      <trkpt lat="56.8708646059" lon="14.840451423631">
        <ele>191</ele>
        <time>2020-02-08T11:21:32Z</time>
      </trkpt>
      <trkpt lat="56.870974492609" lon="14.840295771748">
        <ele>190.6</ele>
        <time>2020-02-08T11:21:44Z</time>
      </trkpt>
      <trkpt lat="56.870977929188" lon="14.84027297298">
        <ele>190.4</ele>
        <time>2020-02-08T11:21:46Z</time>
      </trkpt>
      <trkpt lat="56.870975414618" lon="14.840258975207">
        <ele>190.2</ele>
        <time>2020-02-08T11:21:47Z</time>
      </trkpt>
      <trkpt lat="56.870960327198" lon="14.840212874757">
        <ele>190.2</ele>
        <time>2020-02-08T11:21:49Z</time>
      </trkpt>
      <trkpt lat="56.87096099775" lon="14.840159062959">
        <ele>190.4</ele>
        <time>2020-02-08T11:21:52Z</time>
      </trkpt>
      <trkpt lat="56.870990250581" lon="14.840088235904">
        <ele>191.4</ele>
        <time>2020-02-08T11:21:57Z</time>
      </trkpt>
      <trkpt lat="56.870992932789" lon="14.840061330005">
        <ele>191.4</ele>
        <time>2020-02-08T11:21:58Z</time>
      </trkpt>
      <trkpt lat="56.870986478726" lon="14.840046494042">
        <ele>191.4</ele>
        <time>2020-02-08T11:22:04Z</time>
      </trkpt>
      <trkpt lat="56.870988490382" lon="14.840064598946">
        <ele>191.6</ele>
        <time>2020-02-08T11:22:07Z</time>
      </trkpt>
      <trkpt lat="56.870982455414" lon="14.840088235904">
        <ele>191.6</ele>
        <time>2020-02-08T11:22:11Z</time>
      </trkpt>
      <trkpt lat="56.870982287776" lon="14.840094354691">
        <ele>191.6</ele>
        <time>2020-02-08T11:22:12Z</time>
      </trkpt>
      <trkpt lat="56.870885728288" lon="14.839879694232">
        <ele>191.2</ele>
        <time>2020-02-08T11:22:56Z</time>
      </trkpt>
      <trkpt lat="56.870860163493" lon="14.839896122756">
        <ele>190.6</ele>
        <time>2020-02-08T11:23:01Z</time>
      </trkpt>
      <trkpt lat="56.870861672235" lon="14.83993099146">
        <ele>190.4</ele>
        <time>2020-02-08T11:23:04Z</time>
      </trkpt>
      <trkpt lat="56.870864270624" lon="14.839943648129">
        <ele>190.4</ele>
        <time>2020-02-08T11:23:05Z</time>
      </trkpt>
      <trkpt lat="56.870893774912" lon="14.840048673336">
        <ele>190.8</ele>
        <time>2020-02-08T11:23:13Z</time>
      </trkpt>
      <trkpt lat="56.870917830965" lon="14.84005923453">
        <ele>191.6</ele>
        <time>2020-02-08T11:23:15Z</time>
      </trkpt>
      <trkpt lat="56.870929817082" lon="14.840061916738">
        <ele>191.8</ele>
        <time>2020-02-08T11:23:16Z</time>
      </trkpt>
      <trkpt lat="56.870943982493" lon="14.840069208991">
        <ele>191.6</ele>
        <time>2020-02-08T11:23:18Z</time>
      </trkpt>
      <trkpt lat="56.870908443237" lon="14.840088235904">
        <ele>191.4</ele>
        <time>2020-02-08T11:23:28Z</time>
      </trkpt>
      <trkpt lat="56.870855134353" lon="14.840106089351">
        <ele>190.4</ele>
        <time>2020-02-08T11:23:31Z</time>
      </trkpt>
      <trkpt lat="56.87081179993" lon="14.840124026617">
        <ele>189.4</ele>
        <time>2020-02-08T11:23:33Z</time>
      </trkpt>
      <trkpt lat="56.870741224332" lon="14.840200301907">
        <ele>188</ele>
        <time>2020-02-08T11:23:36Z</time>
      </trkpt>
      <trkpt lat="56.870652879106" lon="14.840436503849">
        <ele>187.6</ele>
        <time>2020-02-08T11:23:43Z</time>
      </trkpt>
      <trkpt lat="56.870657321513" lon="14.840476150236">
        <ele>187.6</ele>
        <time>2020-02-08T11:23:45Z</time>
      </trkpt>
      <trkpt lat="56.870660841911" lon="14.8405059898">
        <ele>187.6</ele>
        <time>2020-02-08T11:23:47Z</time>
      </trkpt>
      <trkpt lat="56.870692860769" lon="14.840565417471">
        <ele>188</ele>
        <time>2020-02-08T11:23:50Z</time>
      </trkpt>
      <trkpt lat="56.870756814666" lon="14.840645632254">
        <ele>190.4</ele>
        <time>2020-02-08T11:23:53Z</time>
      </trkpt>
      <trkpt lat="56.87081599088" lon="14.840808324933">
        <ele>189.8</ele>
        <time>2020-02-08T11:23:57Z</time>
      </trkpt>
      <trkpt lat="56.870854463801" lon="14.840872865563">
        <ele>189.4</ele>
        <time>2020-02-08T11:23:59Z</time>
      </trkpt>
      <trkpt lat="56.870982958328" lon="14.841048466368">
        <ele>190.6</ele>
        <time>2020-02-08T11:24:05Z</time>
      </trkpt>
      <trkpt lat="56.871004164535" lon="14.841112168808">
        <ele>191</ele>
        <time>2020-02-08T11:24:07Z</time>
      </trkpt>
      <trkpt lat="56.87102218562" lon="14.841183917872">
        <ele>191.6</ele>
        <time>2020-02-08T11:24:09Z</time>
      </trkpt>
      <trkpt lat="56.871004248354" lon="14.84139866215">
        <ele>192.8</ele>
        <time>2020-02-08T11:24:14Z</time>
      </trkpt>
      <trkpt lat="56.870996620825" lon="14.841456078165">
        <ele>193.4</ele>
        <time>2020-02-08T11:24:15Z</time>
      </trkpt>
      <trkpt lat="56.870994944445" lon="14.841499496407">
        <ele>193.8</ele>
        <time>2020-02-08T11:24:16Z</time>
      </trkpt>
      <trkpt lat="56.870940965009" lon="14.841601168854">
        <ele>193.8</ele>
        <time>2020-02-08T11:24:19Z</time>
      </trkpt>
      <trkpt lat="56.870923949752" lon="14.841642240164">
        <ele>194.2</ele>
        <time>2020-02-08T11:24:20Z</time>
      </trkpt>
      <trkpt lat="56.870819846554" lon="14.841935271388">
        <ele>193.4</ele>
        <time>2020-02-08T11:24:26Z</time>
      </trkpt>
      <trkpt lat="56.870804759134" lon="14.841983215856">
        <ele>193.2</ele>
        <time>2020-02-08T11:24:27Z</time>
      </trkpt>
      <trkpt lat="56.870777769416" lon="14.842323940091">
        <ele>194.6</ele>
        <time>2020-02-08T11:24:33Z</time>
      </trkpt>
      <trkpt lat="56.870781038357" lon="14.842432737153">
        <ele>194.8</ele>
        <time>2020-02-08T11:24:35Z</time>
      </trkpt>
      <trkpt lat="56.870773913742" lon="14.842548826468">
        <ele>195</ele>
        <time>2020-02-08T11:24:37Z</time>
      </trkpt>
      <trkpt lat="56.870746337291" lon="14.842673465321">
        <ele>195</ele>
        <time>2020-02-08T11:24:40Z</time>
      </trkpt>
      <trkpt lat="56.870698225185" lon="14.842770695361">
        <ele>195.2</ele>
        <time>2020-02-08T11:24:42Z</time>
      </trkpt>
      <trkpt lat="56.870603844991" lon="14.842932214574">
        <ele>196.6</ele>
        <time>2020-02-08T11:24:46Z</time>
      </trkpt>
      <trkpt lat="56.870519690715" lon="14.84308929138">
        <ele>197.8</ele>
        <time>2020-02-08T11:24:50Z</time>
      </trkpt>
      <trkpt lat="56.870497813956" lon="14.843107563922">
        <ele>198.4</ele>
        <time>2020-02-08T11:24:51Z</time>
      </trkpt>
      <trkpt lat="56.870480547242" lon="14.843124998274">
        <ele>198.8</ele>
        <time>2020-02-08T11:24:52Z</time>
      </trkpt>
      <trkpt lat="56.870441822864" lon="14.843156933313">
        <ele>200.2</ele>
        <time>2020-02-08T11:24:54Z</time>
      </trkpt>
      <trkpt lat="56.870393207844" lon="14.843234046793">
        <ele>201.4</ele>
        <time>2020-02-08T11:24:57Z</time>
      </trkpt>
      <trkpt lat="56.870356159846" lon="14.843276962121">
        <ele>202.2</ele>
        <time>2020-02-08T11:24:59Z</time>
      </trkpt>
      <trkpt lat="56.87033570801" lon="14.843283919098">
        <ele>202.6</ele>
        <time>2020-02-08T11:25:00Z</time>
      </trkpt>
      <trkpt lat="56.87030720955" lon="14.843291881903">
        <ele>204</ele>
        <time>2020-02-08T11:25:02Z</time>
      </trkpt>
      <trkpt lat="56.870273598131" lon="14.843275956293">
        <ele>205.2</ele>
        <time>2020-02-08T11:25:04Z</time>
      </trkpt>
      <trkpt lat="56.870230179889" lon="14.843262880529">
        <ele>206.2</ele>
        <time>2020-02-08T11:25:07Z</time>
      </trkpt>
      <trkpt lat="56.870222384722" lon="14.843258354303">
        <ele>206.4</ele>
        <time>2020-02-08T11:25:08Z</time>
      </trkpt>
      <trkpt lat="56.870110486357" lon="14.843257516113">
        <ele>206.2</ele>
        <time>2020-02-08T11:25:47Z</time>
      </trkpt>
      <trkpt lat="56.870056339283" lon="14.84323178368">
        <ele>205.4</ele>
        <time>2020-02-08T11:25:49Z</time>
      </trkpt>
      <trkpt lat="56.870024655701" lon="14.84322004902">
        <ele>205</ele>
        <time>2020-02-08T11:25:50Z</time>
      </trkpt>
      <trkpt lat="56.869994480861" lon="14.843212756767">
        <ele>204.6</ele>
        <time>2020-02-08T11:25:51Z</time>
      </trkpt>
      <trkpt lat="56.86990990749" lon="14.843200183917">
        <ele>203.6</ele>
        <time>2020-02-08T11:25:54Z</time>
      </trkpt>
      <trkpt lat="56.869833045467" lon="14.84322759273">
        <ele>202</ele>
        <time>2020-02-08T11:25:57Z</time>
      </trkpt>
      <trkpt lat="56.869801613342" lon="14.843244272711">
        <ele>201</ele>
        <time>2020-02-08T11:25:58Z</time>
      </trkpt>
      <trkpt lat="56.869775545633" lon="14.84325022386">
        <ele>199.8</ele>
        <time>2020-02-08T11:25:59Z</time>
      </trkpt>
      <trkpt lat="56.869745203155" lon="14.843258019027">
        <ele>198.6</ele>
        <time>2020-02-08T11:26:00Z</time>
      </trkpt>
      <trkpt lat="56.869714190125" lon="14.843263383443">
        <ele>197.6</ele>
        <time>2020-02-08T11:26:01Z</time>
      </trkpt>
      <trkpt lat="56.86966264144" lon="14.843290959894">
        <ele>196</ele>
        <time>2020-02-08T11:26:03Z</time>
      </trkpt>
      <trkpt lat="56.869645626183" lon="14.843297413957">
        <ele>195.4</ele>
        <time>2020-02-08T11:26:04Z</time>
      </trkpt>
      <trkpt lat="56.869604303416" lon="14.843332450299">
        <ele>194.8</ele>
        <time>2020-02-08T11:26:07Z</time>
      </trkpt>
      <trkpt lat="56.869517550751" lon="14.843316943784">
        <ele>194.8</ele>
        <time>2020-02-08T11:26:10Z</time>
      </trkpt>
      <trkpt lat="56.869310014907" lon="14.8433139263">
        <ele>195.4</ele>
        <time>2020-02-08T11:26:16Z</time>
      </trkpt>
      <trkpt lat="56.869188058262" lon="14.843448371976">
        <ele>196</ele>
        <time>2020-02-08T11:26:20Z</time>
      </trkpt>
      <trkpt lat="56.869046907066" lon="14.843714245844">
        <ele>196.6</ele>
        <time>2020-02-08T11:26:27Z</time>
      </trkpt>
      <trkpt lat="56.868983036988" lon="14.843987747241">
        <ele>195.6</ele>
        <time>2020-02-08T11:26:35Z</time>
      </trkpt>
      <trkpt lat="56.868877760324" lon="14.844294021867">
        <ele>196</ele>
        <time>2020-02-08T11:26:40Z</time>
      </trkpt>
      <trkpt lat="56.868820763404" lon="14.844517734778">
        <ele>194.8</ele>
        <time>2020-02-08T11:26:47Z</time>
      </trkpt>
      <trkpt lat="56.868676510905" lon="14.844755445462">
        <ele>194.8</ele>
        <time>2020-02-08T11:26:53Z</time>
      </trkpt>
      <trkpt lat="56.868625465134" lon="14.844816046599">
        <ele>196.2</ele>
        <time>2020-02-08T11:26:55Z</time>
      </trkpt>
      <trkpt lat="56.868518428271" lon="14.844962310754">
        <ele>196</ele>
        <time>2020-02-08T11:27:00Z</time>
      </trkpt>
      <trkpt lat="56.868471238174" lon="14.845071946006">
        <ele>195.2</ele>
        <time>2020-02-08T11:27:04Z</time>
      </trkpt>
      <trkpt lat="56.868473166011" lon="14.845117292085">
        <ele>195.2</ele>
        <time>2020-02-08T11:27:05Z</time>
      </trkpt>
      <trkpt lat="56.868471321993" lon="14.845389117102">
        <ele>193.8</ele>
        <time>2020-02-08T11:27:11Z</time>
      </trkpt>
      <trkpt lat="56.868523792687" lon="14.845663456689">
        <ele>192.8</ele>
        <time>2020-02-08T11:27:17Z</time>
      </trkpt>
      <trkpt lat="56.868519853194" lon="14.84574719187">
        <ele>192.6</ele>
        <time>2020-02-08T11:27:19Z</time>
      </trkpt>
      <trkpt lat="56.868514991692" lon="14.845876021673">
        <ele>191.2</ele>
        <time>2020-02-08T11:27:23Z</time>
      </trkpt>
      <trkpt lat="56.868470986717" lon="14.846008120417">
        <ele>191.2</ele>
        <time>2020-02-08T11:27:27Z</time>
      </trkpt>
      <trkpt lat="56.868435028366" lon="14.846025973864">
        <ele>192.2</ele>
        <time>2020-02-08T11:27:29Z</time>
      </trkpt>
      <trkpt lat="56.868395130522" lon="14.846025387131">
        <ele>193.4</ele>
        <time>2020-02-08T11:27:31Z</time>
      </trkpt>
      <trkpt lat="56.868384653147" lon="14.846034607221">
        <ele>193.6</ele>
        <time>2020-02-08T11:27:32Z</time>
      </trkpt>
      <trkpt lat="56.868352299013" lon="14.846150109803">
        <ele>192</ele>
        <time>2020-02-08T11:27:36Z</time>
      </trkpt>
      <trkpt lat="56.868318603775" lon="14.846205849438">
        <ele>191</ele>
        <time>2020-02-08T11:27:38Z</time>
      </trkpt>
      <trkpt lat="56.868240735924" lon="14.84630458822">
        <ele>190.2</ele>
        <time>2020-02-08T11:27:42Z</time>
      </trkpt>
      <trkpt lat="56.868223553029" lon="14.846325291513">
        <ele>190.2</ele>
        <time>2020-02-08T11:27:43Z</time>
      </trkpt>
      <trkpt lat="56.868194551655" lon="14.846393017265">
        <ele>190.2</ele>
        <time>2020-02-08T11:27:45Z</time>
      </trkpt>
      <trkpt lat="56.868191534171" lon="14.846406176848">
        <ele>190</ele>
        <time>2020-02-08T11:27:47Z</time>
      </trkpt>
      <trkpt lat="56.868194467836" lon="14.846229486396">
        <ele>189.4</ele>
        <time>2020-02-08T11:27:57Z</time>
      </trkpt>
      <trkpt lat="56.868263869968" lon="14.845917260621">
        <ele>190</ele>
        <time>2020-02-08T11:28:04Z</time>
      </trkpt>
      <trkpt lat="56.868297146111" lon="14.845823802436">
        <ele>191.4</ele>
        <time>2020-02-08T11:28:07Z</time>
      </trkpt>
      <trkpt lat="56.868324303467" lon="14.845771164104">
        <ele>192.8</ele>
        <time>2020-02-08T11:28:09Z</time>
      </trkpt>
      <trkpt lat="56.868391358667" lon="14.845623558845">
        <ele>194</ele>
        <time>2020-02-08T11:28:13Z</time>
      </trkpt>
      <trkpt lat="56.868455983116" lon="14.845411580594">
        <ele>194.4</ele>
        <time>2020-02-08T11:28:18Z</time>
      </trkpt>
      <trkpt lat="56.868465957577" lon="14.845256766901">
        <ele>195</ele>
        <time>2020-02-08T11:28:21Z</time>
      </trkpt>
      <trkpt lat="56.868475512943" lon="14.845220557093">
        <ele>195.4</ele>
        <time>2020-02-08T11:28:22Z</time>
      </trkpt>
      <trkpt lat="56.868507280344" lon="14.84493247119">
        <ele>195</ele>
        <time>2020-02-08T11:28:27Z</time>
      </trkpt>
      <trkpt lat="56.868612892284" lon="14.844803054654">
        <ele>196.2</ele>
        <time>2020-02-08T11:28:32Z</time>
      </trkpt>
      <trkpt lat="56.868641977477" lon="14.844783608646">
        <ele>195.2</ele>
        <time>2020-02-08T11:28:33Z</time>
      </trkpt>
      <trkpt lat="56.868785391786" lon="14.844576659535">
        <ele>195.4</ele>
        <time>2020-02-08T11:28:39Z</time>
      </trkpt>
      <trkpt lat="56.868803412871" lon="14.844522093366">
        <ele>195.6</ele>
        <time>2020-02-08T11:28:40Z</time>
      </trkpt>
      <trkpt lat="56.868872815003" lon="14.844318748472">
        <ele>196.2</ele>
        <time>2020-02-08T11:28:44Z</time>
      </trkpt>
      <trkpt lat="56.868968368663" lon="14.843990094173">
        <ele>196.4</ele>
        <time>2020-02-08T11:28:50Z</time>
      </trkpt>
      <trkpt lat="56.869080686123" lon="14.843723298296">
        <ele>196.8</ele>
        <time>2020-02-08T11:28:56Z</time>
      </trkpt>
      <trkpt lat="56.869116812112" lon="14.843648112653">
        <ele>197.6</ele>
        <time>2020-02-08T11:28:58Z</time>
      </trkpt>
      <trkpt lat="56.869165846227" lon="14.843536968659">
        <ele>198</ele>
        <time>2020-02-08T11:29:00Z</time>
      </trkpt>
      <trkpt lat="56.86924270825" lon="14.843376036179">
        <ele>198.6</ele>
        <time>2020-02-08T11:29:04Z</time>
      </trkpt>
      <trkpt lat="56.869357205004" lon="14.843384501898">
        <ele>197.4</ele>
        <time>2020-02-08T11:29:08Z</time>
      </trkpt>
      <trkpt lat="56.869481173305" lon="14.843358685646">
        <ele>196.2</ele>
        <time>2020-02-08T11:29:12Z</time>
      </trkpt>
      <trkpt lat="56.869671107159" lon="14.843262545253">
        <ele>197.4</ele>
        <time>2020-02-08T11:29:20Z</time>
      </trkpt>
      <trkpt lat="56.869721733835" lon="14.843237986286">
        <ele>198.6</ele>
        <time>2020-02-08T11:29:22Z</time>
      </trkpt>
      <trkpt lat="56.869768923932" lon="14.843214516966">
        <ele>200</ele>
        <time>2020-02-08T11:29:24Z</time>
      </trkpt>
      <trkpt lat="56.869816365486" lon="14.843198591356">
        <ele>201.6</ele>
        <time>2020-02-08T11:29:26Z</time>
      </trkpt>
      <trkpt lat="56.869853078208" lon="14.843188784533">
        <ele>203</ele>
        <time>2020-02-08T11:29:28Z</time>
      </trkpt>
      <trkpt lat="56.869894987708" lon="14.843190041818">
        <ele>204</ele>
        <time>2020-02-08T11:29:30Z</time>
      </trkpt>
      <trkpt lat="56.869918876123" lon="14.843183084841">
        <ele>204.4</ele>
        <time>2020-02-08T11:29:31Z</time>
      </trkpt>
      <trkpt lat="56.870027673185" lon="14.843181576099">
        <ele>205.4</ele>
        <time>2020-02-08T11:29:35Z</time>
      </trkpt>
      <trkpt lat="56.870115347859" lon="14.843207895265">
        <ele>206.4</ele>
        <time>2020-02-08T11:29:38Z</time>
      </trkpt>
      <trkpt lat="56.870139403912" lon="14.843199764822">
        <ele>207</ele>
        <time>2020-02-08T11:29:40Z</time>
      </trkpt>
      <trkpt lat="56.870146696165" lon="14.843185431773">
        <ele>207.6</ele>
        <time>2020-02-08T11:29:41Z</time>
      </trkpt>
      <trkpt lat="56.870167734734" lon="14.843159783159">
        <ele>209.4</ele>
        <time>2020-02-08T11:29:43Z</time>
      </trkpt>
      <trkpt lat="56.870172344779" lon="14.843146791214">
        <ele>209.6</ele>
        <time>2020-02-08T11:29:45Z</time>
      </trkpt>
      <trkpt lat="56.870365631393" lon="14.843066241155">
        <ele>208.8</ele>
        <time>2020-02-08T11:30:32Z</time>
      </trkpt>
      <trkpt lat="56.870354567285" lon="14.843053081572">
        <ele>208.8</ele>
        <time>2020-02-08T11:30:55Z</time>
      </trkpt>
      <trkpt lat="56.870281477117" lon="14.843237567191">
        <ele>208.8</ele>
        <time>2020-02-08T11:31:27Z</time>
      </trkpt>
      <trkpt lat="56.870259181263" lon="14.843324906589">
        <ele>208.4</ele>
        <time>2020-02-08T11:31:30Z</time>
      </trkpt>
      <trkpt lat="56.870251134639" lon="14.843355249067">
        <ele>208</ele>
        <time>2020-02-08T11:31:31Z</time>
      </trkpt>
      <trkpt lat="56.870234035563" lon="14.843437810782">
        <ele>206.8</ele>
        <time>2020-02-08T11:31:34Z</time>
      </trkpt>
      <trkpt lat="56.870222971455" lon="14.843478714454">
        <ele>205.6</ele>
        <time>2020-02-08T11:31:36Z</time>
      </trkpt>
      <trkpt lat="56.870211152976" lon="14.843519785764">
        <ele>204</ele>
        <time>2020-02-08T11:31:38Z</time>
      </trkpt>
      <trkpt lat="56.870194640633" lon="14.843579548711">
        <ele>202.4</ele>
        <time>2020-02-08T11:31:40Z</time>
      </trkpt>
      <trkpt lat="56.870171758046" lon="14.843643418789">
        <ele>201</ele>
        <time>2020-02-08T11:31:42Z</time>
      </trkpt>
      <trkpt lat="56.870148959278" lon="14.843750120376">
        <ele>200</ele>
        <time>2020-02-08T11:31:45Z</time>
      </trkpt>
      <trkpt lat="56.870110151081" lon="14.843915243806">
        <ele>200</ele>
        <time>2020-02-08T11:31:50Z</time>
      </trkpt>
      <trkpt lat="56.870086514123" lon="14.844014485502">
        <ele>200.4</ele>
        <time>2020-02-08T11:31:53Z</time>
      </trkpt>
      <trkpt lat="56.870069834142" lon="14.844087659489">
        <ele>200.4</ele>
        <time>2020-02-08T11:31:56Z</time>
      </trkpt>
      <trkpt lat="56.870058434758" lon="14.844230487065">
        <ele>198.8</ele>
        <time>2020-02-08T11:31:59Z</time>
      </trkpt>
      <trkpt lat="56.870034127248" lon="14.84453684551">
        <ele>197.6</ele>
        <time>2020-02-08T11:32:06Z</time>
      </trkpt>
      <trkpt lat="56.870020883846" lon="14.844574731698">
        <ele>197.6</ele>
        <time>2020-02-08T11:32:07Z</time>
      </trkpt>
      <trkpt lat="56.87003731237" lon="14.844627286211">
        <ele>197.4</ele>
        <time>2020-02-08T11:32:09Z</time>
      </trkpt>
      <trkpt lat="56.870063380079" lon="14.844774556194">
        <ele>197</ele>
        <time>2020-02-08T11:32:13Z</time>
      </trkpt>
      <trkpt lat="56.870097326774" lon="14.844930627172">
        <ele>196.6</ele>
        <time>2020-02-08T11:32:18Z</time>
      </trkpt>
      <trkpt lat="56.870109145253" lon="14.845060630441">
        <ele>196.2</ele>
        <time>2020-02-08T11:32:26Z</time>
      </trkpt>
      <trkpt lat="56.870080479155" lon="14.845122153587">
        <ele>197</ele>
        <time>2020-02-08T11:32:29Z</time>
      </trkpt>
      <trkpt lat="56.870059189129" lon="14.84517219353">
        <ele>197.6</ele>
        <time>2020-02-08T11:32:31Z</time>
      </trkpt>
      <trkpt lat="56.870054662903" lon="14.845195495212">
        <ele>197.8</ele>
        <time>2020-02-08T11:32:32Z</time>
      </trkpt>
      <trkpt lat="56.870051645419" lon="14.845240338377">
        <ele>198.2</ele>
        <time>2020-02-08T11:32:34Z</time>
      </trkpt>
      <trkpt lat="56.869970927722" lon="14.845390206749">
        <ele>196.4</ele>
        <time>2020-02-08T11:32:41Z</time>
      </trkpt>
      <trkpt lat="56.869931616611" lon="14.845519707104">
        <ele>195</ele>
        <time>2020-02-08T11:32:44Z</time>
      </trkpt>
      <trkpt lat="56.86989649645" lon="14.84557620111">
        <ele>194.4</ele>
        <time>2020-02-08T11:32:47Z</time>
      </trkpt>
      <trkpt lat="56.869839750987" lon="14.845667396182">
        <ele>194.2</ele>
        <time>2020-02-08T11:32:53Z</time>
      </trkpt>
      <trkpt lat="56.8698336322" lon="14.845688686208">
        <ele>194.2</ele>
        <time>2020-02-08T11:32:55Z</time>
      </trkpt>
      <trkpt lat="56.869825920852" lon="14.845803266781">
        <ele>194.4</ele>
        <time>2020-02-08T11:33:00Z</time>
      </trkpt>
      <trkpt lat="56.869823741558" lon="14.845861940081">
        <ele>194.6</ele>
        <time>2020-02-08T11:33:03Z</time>
      </trkpt>
      <trkpt lat="56.869793734356" lon="14.84594835747">
        <ele>194.8</ele>
        <time>2020-02-08T11:33:07Z</time>
      </trkpt>
      <trkpt lat="56.86978836994" lon="14.846030080995">
        <ele>195.2</ele>
        <time>2020-02-08T11:33:10Z</time>
      </trkpt>
      <trkpt lat="56.869784933361" lon="14.846072493409">
        <ele>195.6</ele>
        <time>2020-02-08T11:33:15Z</time>
      </trkpt>
      <trkpt lat="56.869789543406" lon="14.846092945245">
        <ele>195.6</ele>
        <time>2020-02-08T11:33:17Z</time>
      </trkpt>
      <trkpt lat="56.869785100999" lon="14.846138961876">
        <ele>195.4</ele>
        <time>2020-02-08T11:33:21Z</time>
      </trkpt>
      <trkpt lat="56.869778563117" lon="14.846150947993">
        <ele>195.2</ele>
        <time>2020-02-08T11:33:22Z</time>
      </trkpt>
      <trkpt lat="56.869672364444" lon="14.846432328376">
        <ele>194.8</ele>
        <time>2020-02-08T11:33:26Z</time>
      </trkpt>
      <trkpt lat="56.869625174347" lon="14.846590159553">
        <ele>195</ele>
        <time>2020-02-08T11:33:29Z</time>
      </trkpt>
      <trkpt lat="56.869568847979" lon="14.846729131455">
        <ele>195.2</ele>
        <time>2020-02-08T11:33:33Z</time>
      </trkpt>
      <trkpt lat="56.869572787472" lon="14.847128948085">
        <ele>195</ele>
        <time>2020-02-08T11:33:40Z</time>
      </trkpt>
      <trkpt lat="56.869516880199" lon="14.847231542541">
        <ele>195.2</ele>
        <time>2020-02-08T11:33:44Z</time>
      </trkpt>
      <trkpt lat="56.86948075421" lon="14.847385518044">
        <ele>196</ele>
        <time>2020-02-08T11:33:48Z</time>
      </trkpt>
      <trkpt lat="56.86948326878" lon="14.847410831382">
        <ele>196.2</ele>
        <time>2020-02-08T11:33:49Z</time>
      </trkpt>
      <trkpt lat="56.869475473613" lon="14.847431869951">
        <ele>196.4</ele>
        <time>2020-02-08T11:33:50Z</time>
      </trkpt>
      <trkpt lat="56.869449322085" lon="14.847534967321">
        <ele>197</ele>
        <time>2020-02-08T11:33:54Z</time>
      </trkpt>
      <trkpt lat="56.869437252149" lon="14.847603112168">
        <ele>197.2</ele>
        <time>2020-02-08T11:33:56Z</time>
      </trkpt>
      <trkpt lat="56.869432809742" lon="14.847644099659">
        <ele>197.4</ele>
        <time>2020-02-08T11:33:57Z</time>
      </trkpt>
      <trkpt lat="56.869397857219" lon="14.84773705493">
        <ele>198.6</ele>
        <time>2020-02-08T11:34:00Z</time>
      </trkpt>
      <trkpt lat="56.86936173123" lon="14.847837134816">
        <ele>199.8</ele>
        <time>2020-02-08T11:34:03Z</time>
      </trkpt>
      <trkpt lat="56.869289730709" lon="14.84802958324">
        <ele>201</ele>
        <time>2020-02-08T11:34:08Z</time>
      </trkpt>
      <trkpt lat="56.86928545594" lon="14.848074594043">
        <ele>201.2</ele>
        <time>2020-02-08T11:34:09Z</time>
      </trkpt>
      <trkpt lat="56.86924606101" lon="14.848142655071">
        <ele>201.4</ele>
        <time>2020-02-08T11:34:11Z</time>
      </trkpt>
      <trkpt lat="56.869216975817" lon="14.848150869333">
        <ele>201.2</ele>
        <time>2020-02-08T11:34:39Z</time>
      </trkpt>
      <trkpt lat="56.869237846748" lon="14.848112480231">
        <ele>201.4</ele>
        <time>2020-02-08T11:34:42Z</time>
      </trkpt>
      <trkpt lat="56.869306075414" lon="14.847958672366">
        <ele>201.4</ele>
        <time>2020-02-08T11:34:46Z</time>
      </trkpt>
      <trkpt lat="56.869376567193" lon="14.847795141497">
        <ele>199.4</ele>
        <time>2020-02-08T11:34:51Z</time>
      </trkpt>
      <trkpt lat="56.869404059825" lon="14.847766894494">
        <ele>200.8</ele>
        <time>2020-02-08T11:34:52Z</time>
      </trkpt>
      <trkpt lat="56.869459548003" lon="14.847720710225">
        <ele>204.4</ele>
        <time>2020-02-08T11:34:54Z</time>
      </trkpt>
      <trkpt lat="56.869495925449" lon="14.847647117143">
        <ele>202</ele>
        <time>2020-02-08T11:34:56Z</time>
      </trkpt>
      <trkpt lat="56.869517299294" lon="14.847641752727">
        <ele>201.4</ele>
        <time>2020-02-08T11:34:57Z</time>
      </trkpt>
      <trkpt lat="56.869586785245" lon="14.847650218446">
        <ele>201</ele>
        <time>2020-02-08T11:35:01Z</time>
      </trkpt>
      <trkpt lat="56.869614361696" lon="14.84763479575">
        <ele>200.6</ele>
        <time>2020-02-08T11:35:02Z</time>
      </trkpt>
      <trkpt lat="56.86979507546" lon="14.847485430292">
        <ele>200</ele>
        <time>2020-02-08T11:35:08Z</time>
      </trkpt>
      <trkpt lat="56.86981770659" lon="14.847406640432">
        <ele>199.6</ele>
        <time>2020-02-08T11:35:10Z</time>
      </trkpt>
      <trkpt lat="56.86982022116" lon="14.847330868056">
        <ele>199.2</ele>
        <time>2020-02-08T11:35:12Z</time>
      </trkpt>
      <trkpt lat="56.869840086263" lon="14.847151327758">
        <ele>199</ele>
        <time>2020-02-08T11:35:17Z</time>
      </trkpt>
      <trkpt lat="56.869895574441" lon="14.847056947564">
        <ele>200.6</ele>
        <time>2020-02-08T11:35:21Z</time>
      </trkpt>
      <trkpt lat="56.870056255464" lon="14.846886962632">
        <ele>200.6</ele>
        <time>2020-02-08T11:35:28Z</time>
      </trkpt>
      <trkpt lat="56.870117443334" lon="14.846783613805">
        <ele>199.2</ele>
        <time>2020-02-08T11:35:31Z</time>
      </trkpt>
      <trkpt lat="56.870165220164" lon="14.846711529465">
        <ele>198.2</ele>
        <time>2020-02-08T11:35:33Z</time>
      </trkpt>
      <trkpt lat="56.87018818657" lon="14.846650006319">
        <ele>197.6</ele>
        <time>2020-02-08T11:35:35Z</time>
      </trkpt>
      <trkpt lat="56.870317435468" lon="14.846496282273">
        <ele>197.6</ele>
        <time>2020-02-08T11:35:42Z</time>
      </trkpt>
      <trkpt lat="56.870362781547" lon="14.84628195709">
        <ele>197.4</ele>
        <time>2020-02-08T11:35:48Z</time>
      </trkpt>
      <trkpt lat="56.870383149564" lon="14.846159162255">
        <ele>197.8</ele>
        <time>2020-02-08T11:35:53Z</time>
      </trkpt>
      <trkpt lat="56.870435033525" lon="14.845970401867">
        <ele>197.8</ele>
        <time>2020-02-08T11:35:58Z</time>
      </trkpt>
      <trkpt lat="56.870445175624" lon="14.84584945105">
        <ele>197.8</ele>
        <time>2020-02-08T11:36:01Z</time>
      </trkpt>
      <trkpt lat="56.87039773407" lon="14.84558877396">
        <ele>197.8</ele>
        <time>2020-02-08T11:36:07Z</time>
      </trkpt>
      <trkpt lat="56.870379461528" lon="14.845413759888">
        <ele>199.4</ele>
        <time>2020-02-08T11:36:11Z</time>
      </trkpt>
      <trkpt lat="56.870348197041" lon="14.845309908147">
        <ele>200.4</ele>
        <time>2020-02-08T11:36:14Z</time>
      </trkpt>
      <trkpt lat="56.870339396046" lon="14.845286103551">
        <ele>200.8</ele>
        <time>2020-02-08T11:36:15Z</time>
      </trkpt>
      <trkpt lat="56.870328415757" lon="14.845255425797">
        <ele>201.6</ele>
        <time>2020-02-08T11:36:16Z</time>
      </trkpt>
      <trkpt lat="56.87031810602" lon="14.8452166176">
        <ele>202.2</ele>
        <time>2020-02-08T11:36:17Z</time>
      </trkpt>
      <trkpt lat="56.870299917297" lon="14.84512693127">
        <ele>203.6</ele>
        <time>2020-02-08T11:36:19Z</time>
      </trkpt>
      <trkpt lat="56.870275609787" lon="14.845033556904">
        <ele>204.6</ele>
        <time>2020-02-08T11:36:22Z</time>
      </trkpt>
      <trkpt lat="56.870242836558" lon="14.844933141742">
        <ele>205.8</ele>
        <time>2020-02-08T11:36:25Z</time>
      </trkpt>
      <trkpt lat="56.87023512521" lon="14.844903553635">
        <ele>206</ele>
        <time>2020-02-08T11:36:26Z</time>
      </trkpt>
      <trkpt lat="56.870221295075" lon="14.8448226683">
        <ele>206.8</ele>
        <time>2020-02-08T11:36:28Z</time>
      </trkpt>
      <trkpt lat="56.870144935966" lon="14.844491918526">
        <ele>206.8</ele>
        <time>2020-02-08T11:36:36Z</time>
      </trkpt>
      <trkpt lat="56.870134039496" lon="14.844418576901">
        <ele>206.4</ele>
        <time>2020-02-08T11:36:38Z</time>
      </trkpt>
      <trkpt lat="56.870093554919" lon="14.844357975764">
        <ele>205.4</ele>
        <time>2020-02-08T11:36:41Z</time>
      </trkpt>
      <trkpt lat="56.870061787518" lon="14.844249094883">
        <ele>205.2</ele>
        <time>2020-02-08T11:36:45Z</time>
      </trkpt>
      <trkpt lat="56.870047286831" lon="14.844184135158">
        <ele>205.2</ele>
        <time>2020-02-08T11:36:47Z</time>
      </trkpt>
      <trkpt lat="56.870036641818" lon="14.844078104123">
        <ele>205.2</ele>
        <time>2020-02-08T11:36:50Z</time>
      </trkpt>
      <trkpt lat="56.869999510001" lon="14.843915076168">
        <ele>207</ele>
        <time>2020-02-08T11:36:54Z</time>
      </trkpt>
      <trkpt lat="56.869998168897" lon="14.843881213292">
        <ele>207.2</ele>
        <time>2020-02-08T11:36:55Z</time>
      </trkpt>
      <trkpt lat="56.870001018743" lon="14.843818600499">
        <ele>208.2</ele>
        <time>2020-02-08T11:36:57Z</time>
      </trkpt>
      <trkpt lat="56.869998839449" lon="14.843788760935">
        <ele>208.8</ele>
        <time>2020-02-08T11:36:58Z</time>
      </trkpt>
      <trkpt lat="56.869989200264" lon="14.843699158424">
        <ele>209.2</ele>
        <time>2020-02-08T11:37:00Z</time>
      </trkpt>
      <trkpt lat="56.869979812536" lon="14.843572591734">
        <ele>209.6</ele>
        <time>2020-02-08T11:37:03Z</time>
      </trkpt>
      <trkpt lat="56.870010993204" lon="14.843424818837">
        <ele>209.8</ele>
        <time>2020-02-08T11:37:07Z</time>
      </trkpt>
      <trkpt lat="56.870037731465" lon="14.843262461434">
        <ele>210.6</ele>
        <time>2020-02-08T11:37:11Z</time>
      </trkpt>
      <trkpt lat="56.870088861055" lon="14.843216863898">
        <ele>211.8</ele>
        <time>2020-02-08T11:37:15Z</time>
      </trkpt>
      <trkpt lat="56.870098584059" lon="14.843212589129">
        <ele>212.2</ele>
        <time>2020-02-08T11:37:16Z</time>
      </trkpt>
      <trkpt lat="56.870129094175" lon="14.843213511138">
        <ele>212.8</ele>
        <time>2020-02-08T11:37:18Z</time>
      </trkpt>
      <trkpt lat="56.870151473848" lon="14.84321585807">
        <ele>213</ele>
        <time>2020-02-08T11:37:19Z</time>
      </trkpt>
      <trkpt lat="56.870156167712" lon="14.843201944116">
        <ele>213</ele>
        <time>2020-02-08T11:37:21Z</time>
      </trkpt>
      <trkpt lat="56.870267144068" lon="14.843215438975">
        <ele>212.8</ele>
        <time>2020-02-08T11:38:10Z</time>
      </trkpt>
      <trkpt lat="56.870223977283" lon="14.843204291048">
        <ele>212.2</ele>
        <time>2020-02-08T11:39:15Z</time>
      </trkpt>
      <trkpt lat="56.870255074132" lon="14.843223988513">
        <ele>212</ele>
        <time>2020-02-08T11:39:17Z</time>
      </trkpt>
      <trkpt lat="56.870316010545" lon="14.843224072332">
        <ele>211.8</ele>
        <time>2020-02-08T11:39:20Z</time>
      </trkpt>
      <trkpt lat="56.870351801258" lon="14.843176630778">
        <ele>210.4</ele>
        <time>2020-02-08T11:39:22Z</time>
      </trkpt>
      <trkpt lat="56.8703868376" lon="14.843125836464">
        <ele>208.4</ele>
        <time>2020-02-08T11:39:24Z</time>
      </trkpt>
      <trkpt lat="56.870405193961" lon="14.843110413768">
        <ele>207.6</ele>
        <time>2020-02-08T11:39:25Z</time>
      </trkpt>
      <trkpt lat="56.87042287977" lon="14.84310773156">
        <ele>206.8</ele>
        <time>2020-02-08T11:39:26Z</time>
      </trkpt>
      <trkpt lat="56.870457497017" lon="14.843091219217">
        <ele>205.4</ele>
        <time>2020-02-08T11:39:28Z</time>
      </trkpt>
      <trkpt lat="56.870514326299" lon="14.843023828741">
        <ele>203.8</ele>
        <time>2020-02-08T11:39:30Z</time>
      </trkpt>
      <trkpt lat="56.87055615198" lon="14.842953001686">
        <ele>202.2</ele>
        <time>2020-02-08T11:39:32Z</time>
      </trkpt>
      <trkpt lat="56.870584818078" lon="14.842884353925">
        <ele>201</ele>
        <time>2020-02-08T11:39:35Z</time>
      </trkpt>
      <trkpt lat="56.870635528573" lon="14.842842695882">
        <ele>200.6</ele>
        <time>2020-02-08T11:39:37Z</time>
      </trkpt>
      <trkpt lat="56.870720688677" lon="14.842640105359">
        <ele>200.2</ele>
        <time>2020-02-08T11:39:41Z</time>
      </trkpt>
      <trkpt lat="56.870727310378" lon="14.84259224471">
        <ele>199.8</ele>
        <time>2020-02-08T11:39:42Z</time>
      </trkpt>
      <trkpt lat="56.870733680622" lon="14.842361658641">
        <ele>198.6</ele>
        <time>2020-02-08T11:39:46Z</time>
      </trkpt>
      <trkpt lat="56.870842310046" lon="14.842060664612">
        <ele>197.8</ele>
        <time>2020-02-08T11:39:52Z</time>
      </trkpt>
      <trkpt lat="56.870886315021" lon="14.841955471767">
        <ele>197.6</ele>
        <time>2020-02-08T11:39:55Z</time>
      </trkpt>
      <trkpt lat="56.870995531178" lon="14.841818008607">
        <ele>198.8</ele>
        <time>2020-02-08T11:40:00Z</time>
      </trkpt>
      <trkpt lat="56.871070381545" lon="14.841767717207">
        <ele>198.4</ele>
        <time>2020-02-08T11:40:05Z</time>
      </trkpt>
      <trkpt lat="56.871142801161" lon="14.841749193208">
        <ele>198.2</ele>
        <time>2020-02-08T11:40:09Z</time>
      </trkpt>
      <trkpt lat="56.871162330988" lon="14.841678449972">
        <ele>198.2</ele>
        <time>2020-02-08T11:40:12Z</time>
      </trkpt>
      <trkpt lat="56.871176915494" lon="14.84155875644">
        <ele>198.2</ele>
        <time>2020-02-08T11:40:14Z</time>
      </trkpt>
      <trkpt lat="56.871260818313" lon="14.841216607282">
        <ele>197.8</ele>
        <time>2020-02-08T11:40:20Z</time>
      </trkpt>
      <trkpt lat="56.871293004809" lon="14.841126418038">
        <ele>196.6</ele>
        <time>2020-02-08T11:40:22Z</time>
      </trkpt>
      <trkpt lat="56.871335836318" lon="14.841028936541">
        <ele>195.4</ele>
        <time>2020-02-08T11:40:26Z</time>
      </trkpt>
      <trkpt lat="56.871343799123" lon="14.841016028415">
        <ele>195.4</ele>
        <time>2020-02-08T11:40:27Z</time>
      </trkpt>
      <trkpt lat="56.871374979791" lon="14.841017201881">
        <ele>195.2</ele>
        <time>2020-02-08T11:40:31Z</time>
      </trkpt>
      <trkpt lat="56.871410686685" lon="14.840997672054">
        <ele>195</ele>
        <time>2020-02-08T11:40:34Z</time>
      </trkpt>
      <trkpt lat="56.871519316109" lon="14.840952074518">
        <ele>194.4</ele>
        <time>2020-02-08T11:40:42Z</time>
      </trkpt>
      <trkpt lat="56.871546389646" lon="14.840976884942">
        <ele>194.4</ele>
        <time>2020-02-08T11:40:45Z</time>
      </trkpt>
      <trkpt lat="56.87162987337" lon="14.840966072291">
        <ele>194.6</ele>
        <time>2020-02-08T11:40:47Z</time>
      </trkpt>
      <trkpt lat="56.871714614379" lon="14.840919888022">
        <ele>195.6</ele>
        <time>2020-02-08T11:40:51Z</time>
      </trkpt>
      <trkpt lat="56.87173799988" lon="14.840902872765">
        <ele>195.8</ele>
        <time>2020-02-08T11:40:54Z</time>
      </trkpt>
      <trkpt lat="56.871795080619" lon="14.840880493092">
        <ele>195.8</ele>
        <time>2020-02-08T11:40:58Z</time>
      </trkpt>
      <trkpt lat="56.871850568797" lon="14.840815030453">
        <ele>195</ele>
        <time>2020-02-08T11:41:01Z</time>
      </trkpt>
      <trkpt lat="56.871941093317" lon="14.840673124886">
        <ele>194.8</ele>
        <time>2020-02-08T11:41:08Z</time>
      </trkpt>
      <trkpt lat="56.871953079434" lon="14.840670694135">
        <ele>194.4</ele>
        <time>2020-02-08T11:41:09Z</time>
      </trkpt>
      <trkpt lat="56.871967915397" lon="14.840668011927">
        <ele>194</ele>
        <time>2020-02-08T11:41:10Z</time>
      </trkpt>
      <trkpt lat="56.871980069152" lon="14.840660887312">
        <ele>193.2</ele>
        <time>2020-02-08T11:41:12Z</time>
      </trkpt>
      <trkpt lat="56.872158603622" lon="14.84073984481">
        <ele>193.8</ele>
        <time>2020-02-08T11:41:39Z</time>
      </trkpt>
      <trkpt lat="56.872202189502" lon="14.84086222055">
        <ele>193.8</ele>
        <time>2020-02-08T11:41:44Z</time>
      </trkpt>
      <trkpt lat="56.872227083745" lon="14.840893485037">
        <ele>194</ele>
        <time>2020-02-08T11:41:46Z</time>
      </trkpt>
      <trkpt lat="56.872239740414" lon="14.840901531661">
        <ele>194.4</ele>
        <time>2020-02-08T11:41:47Z</time>
      </trkpt>
      <trkpt lat="56.87222917922" lon="14.840947548292">
        <ele>194.4</ele>
        <time>2020-02-08T11:41:48Z</time>
      </trkpt>
      <trkpt lat="56.872243093174" lon="14.84100638923">
        <ele>194.6</ele>
        <time>2020-02-08T11:41:51Z</time>
      </trkpt>
      <trkpt lat="56.872297659343" lon="14.841079814674">
        <ele>195.2</ele>
        <time>2020-02-08T11:41:56Z</time>
      </trkpt>
      <trkpt lat="56.872318530274" lon="14.841104373641">
        <ele>195.4</ele>
        <time>2020-02-08T11:41:57Z</time>
      </trkpt>
      <trkpt lat="56.872338311558" lon="14.841126585676">
        <ele>195.6</ele>
        <time>2020-02-08T11:41:58Z</time>
      </trkpt>
      <trkpt lat="56.872364882181" lon="14.841163549855">
        <ele>196</ele>
        <time>2020-02-08T11:42:00Z</time>
      </trkpt>
      <trkpt lat="56.872397236315" lon="14.841213757436">
        <ele>196.6</ele>
        <time>2020-02-08T11:42:04Z</time>
      </trkpt>
      <trkpt lat="56.872456747805" lon="14.841231443245">
        <ele>197.2</ele>
        <time>2020-02-08T11:42:08Z</time>
      </trkpt>
      <trkpt lat="56.872469488293" lon="14.841107307306">
        <ele>196.8</ele>
        <time>2020-02-08T11:42:13Z</time>
      </trkpt>
      <trkpt lat="56.872438139987" lon="14.841056261535">
        <ele>196</ele>
        <time>2020-02-08T11:42:18Z</time>
      </trkpt>
      <trkpt lat="56.872389022053" lon="14.84107009167">
        <ele>195.4</ele>
        <time>2020-02-08T11:42:21Z</time>
      </trkpt>
      <trkpt lat="56.872368067303" lon="14.841071265136">
        <ele>195.2</ele>
        <time>2020-02-08T11:42:22Z</time>
      </trkpt>
      <trkpt lat="56.872314423143" lon="14.841027511618">
        <ele>194.4</ele>
        <time>2020-02-08T11:42:25Z</time>
      </trkpt>
      <trkpt lat="56.872152149559" lon="14.84084629494">
        <ele>194.4</ele>
        <time>2020-02-08T11:42:33Z</time>
      </trkpt>
      <trkpt lat="56.872061708858" lon="14.84068787703">
        <ele>194.8</ele>
        <time>2020-02-08T11:42:38Z</time>
      </trkpt>
      <trkpt lat="56.871869930986" lon="14.840695085464">
        <ele>194.2</ele>
        <time>2020-02-08T11:42:44Z</time>
      </trkpt>
      <trkpt lat="56.871732216369" lon="14.840777144265">
        <ele>194.2</ele>
        <time>2020-02-08T11:42:49Z</time>
      </trkpt>
      <trkpt lat="56.871697431484" lon="14.840833386814">
        <ele>195.4</ele>
        <time>2020-02-08T11:42:51Z</time>
      </trkpt>
      <trkpt lat="56.871674548897" lon="14.840853168098">
        <ele>195.6</ele>
        <time>2020-02-08T11:42:52Z</time>
      </trkpt>
      <trkpt lat="56.871528955294" lon="14.840860125075">
        <ele>196.4</ele>
        <time>2020-02-08T11:42:58Z</time>
      </trkpt>
      <trkpt lat="56.871497020255" lon="14.840867082052">
        <ele>196.4</ele>
        <time>2020-02-08T11:42:59Z</time>
      </trkpt>
      <trkpt lat="56.871444298104" lon="14.840929443388">
        <ele>196.6</ele>
        <time>2020-02-08T11:43:01Z</time>
      </trkpt>
      <trkpt lat="56.87139853293" lon="14.841021560469">
        <ele>195</ele>
        <time>2020-02-08T11:43:03Z</time>
      </trkpt>
      <trkpt lat="56.871293172447" lon="14.841297157341">
        <ele>195.2</ele>
        <time>2020-02-08T11:43:08Z</time>
      </trkpt>
      <trkpt lat="56.87126358434" lon="14.841425987144">
        <ele>195.6</ele>
        <time>2020-02-08T11:43:11Z</time>
      </trkpt>
      <trkpt lat="56.871105836982" lon="14.841537298776">
        <ele>196</ele>
        <time>2020-02-08T11:43:17Z</time>
      </trkpt>
      <trkpt lat="56.870936103507" lon="14.841780709152">
        <ele>196.4</ele>
        <time>2020-02-08T11:43:24Z</time>
      </trkpt>
      <trkpt lat="56.870822528762" lon="14.842076841679">
        <ele>195.4</ele>
        <time>2020-02-08T11:43:30Z</time>
      </trkpt>
      <trkpt lat="56.870802747478" lon="14.842415805715">
        <ele>195.4</ele>
        <time>2020-02-08T11:43:36Z</time>
      </trkpt>
      <trkpt lat="56.870793946483" lon="14.842464336916">
        <ele>195.8</ele>
        <time>2020-02-08T11:43:37Z</time>
      </trkpt>
      <trkpt lat="56.870780283986" lon="14.842563243336">
        <ele>196.4</ele>
        <time>2020-02-08T11:43:39Z</time>
      </trkpt>
      <trkpt lat="56.870640390075" lon="14.842828865747">
        <ele>194.8</ele>
        <time>2020-02-08T11:43:46Z</time>
      </trkpt>
      <trkpt lat="56.87053100628" lon="14.843004298914">
        <ele>196.2</ele>
        <time>2020-02-08T11:43:51Z</time>
      </trkpt>
      <trkpt lat="56.870507453141" lon="14.84304235274">
        <ele>196</ele>
        <time>2020-02-08T11:43:53Z</time>
      </trkpt>
      <trkpt lat="56.870433524783" lon="14.843109827035">
        <ele>197.6</ele>
        <time>2020-02-08T11:43:57Z</time>
      </trkpt>
      <trkpt lat="56.87039941045" lon="14.843176882235">
        <ele>198.6</ele>
        <time>2020-02-08T11:43:59Z</time>
      </trkpt>
      <trkpt lat="56.870371666361" lon="14.843236226087">
        <ele>199.6</ele>
        <time>2020-02-08T11:44:01Z</time>
      </trkpt>
      <trkpt lat="56.870345179557" lon="14.843258941036">
        <ele>200.8</ele>
        <time>2020-02-08T11:44:03Z</time>
      </trkpt>
      <trkpt lat="56.870301090763" lon="14.84327620775">
        <ele>202</ele>
        <time>2020-02-08T11:44:05Z</time>
      </trkpt>
      <trkpt lat="56.870252224286" lon="14.843255672095">
        <ele>203.4</ele>
        <time>2020-02-08T11:44:08Z</time>
      </trkpt>
      <trkpt lat="56.870223474369" lon="14.84325776757">
        <ele>204.4</ele>
        <time>2020-02-08T11:44:10Z</time>
      </trkpt>
      <trkpt lat="56.870207381121" lon="14.843268831678">
        <ele>204.6</ele>
        <time>2020-02-08T11:44:11Z</time>
      </trkpt>
      <trkpt lat="56.870195562642" lon="14.843276291569">
        <ele>204.8</ele>
        <time>2020-02-08T11:44:12Z</time>
      </trkpt>
      <trkpt lat="56.870214673374" lon="14.843226503083">
        <ele>204.8</ele>
        <time>2020-02-08T11:45:49Z</time>
      </trkpt>
      <trkpt lat="56.870136805523" lon="14.843138912228">
        <ele>204.8</ele>
        <time>2020-02-08T11:46:39Z</time>
      </trkpt>
      <trkpt lat="56.870116186049" lon="14.843114939994">
        <ele>203.6</ele>
        <time>2020-02-08T11:46:40Z</time>
      </trkpt>
      <trkpt lat="56.87008341282" lon="14.84303480903">
        <ele>202.4</ele>
        <time>2020-02-08T11:46:43Z</time>
      </trkpt>
      <trkpt lat="56.870012418127" lon="14.842923162122">
        <ele>202.8</ele>
        <time>2020-02-08T11:46:48Z</time>
      </trkpt>
      <trkpt lat="56.86994846423" lon="14.842868512134">
        <ele>201</ele>
        <time>2020-02-08T11:46:52Z</time>
      </trkpt>
      <trkpt lat="56.869936226656" lon="14.842850239592">
        <ele>200.6</ele>
        <time>2020-02-08T11:46:53Z</time>
      </trkpt>
      <trkpt lat="56.869903621065" lon="14.842839426941">
        <ele>199.6</ele>
        <time>2020-02-08T11:46:55Z</time>
      </trkpt>
      <trkpt lat="56.869870261103" lon="14.842820819123">
        <ele>198.8</ele>
        <time>2020-02-08T11:46:57Z</time>
      </trkpt>
      <trkpt lat="56.869849390172" lon="14.842795757242">
        <ele>198.4</ele>
        <time>2020-02-08T11:46:58Z</time>
      </trkpt>
      <trkpt lat="56.869814772925" lon="14.842703891618">
        <ele>197</ele>
        <time>2020-02-08T11:47:01Z</time>
      </trkpt>
      <trkpt lat="56.869755848168" lon="14.842551927771">
        <ele>195.8</ele>
        <time>2020-02-08T11:47:06Z</time>
      </trkpt>
      <trkpt lat="56.869706814053" lon="14.842336177665">
        <ele>195.8</ele>
        <time>2020-02-08T11:47:11Z</time>
      </trkpt>
      <trkpt lat="56.86969533085" lon="14.842231403915">
        <ele>195.6</ele>
        <time>2020-02-08T11:47:14Z</time>
      </trkpt>
      <trkpt lat="56.869678399412" lon="14.842160493041">
        <ele>195.6</ele>
        <time>2020-02-08T11:47:16Z</time>
      </trkpt>
      <trkpt lat="56.86965090678" lon="14.842090839452">
        <ele>195.4</ele>
        <time>2020-02-08T11:47:19Z</time>
      </trkpt>
      <trkpt lat="56.869619642293" lon="14.842074662385">
        <ele>194.8</ele>
        <time>2020-02-08T11:47:27Z</time>
      </trkpt>
      <trkpt lat="56.869580917915" lon="14.842027639926">
        <ele>194.2</ele>
        <time>2020-02-08T11:47:38Z</time>
      </trkpt>
      <trkpt lat="56.869527189936" lon="14.842029316306">
        <ele>193.6</ele>
        <time>2020-02-08T11:47:41Z</time>
      </trkpt>
      <trkpt lat="56.869500703132" lon="14.842012552506">
        <ele>193</ele>
        <time>2020-02-08T11:47:43Z</time>
      </trkpt>
      <trkpt lat="56.869461056745" lon="14.841959327441">
        <ele>192.4</ele>
        <time>2020-02-08T11:47:45Z</time>
      </trkpt>
      <trkpt lat="56.869288724881" lon="14.841873664423">
        <ele>191.4</ele>
        <time>2020-02-08T11:47:53Z</time>
      </trkpt>
      <trkpt lat="56.869217311093" lon="14.841810800173">
        <ele>191.2</ele>
        <time>2020-02-08T11:47:58Z</time>
      </trkpt>
      <trkpt lat="56.869173809032" lon="14.841765202637">
        <ele>191.6</ele>
        <time>2020-02-08T11:48:01Z</time>
      </trkpt>
      <trkpt lat="56.869142376907" lon="14.841727484087">
        <ele>192.4</ele>
        <time>2020-02-08T11:48:03Z</time>
      </trkpt>
      <trkpt lat="56.869130055514" lon="14.841707451346">
        <ele>192.8</ele>
        <time>2020-02-08T11:48:04Z</time>
      </trkpt>
      <trkpt lat="56.869100970321" lon="14.841667134407">
        <ele>193.6</ele>
        <time>2020-02-08T11:48:06Z</time>
      </trkpt>
      <trkpt lat="56.869036597329" lon="14.841628661486">
        <ele>195</ele>
        <time>2020-02-08T11:48:09Z</time>
      </trkpt>
      <trkpt lat="56.86899376582" lon="14.8416375463">
        <ele>196.2</ele>
        <time>2020-02-08T11:48:11Z</time>
      </trkpt>
      <trkpt lat="56.868955376718" lon="14.841644084182">
        <ele>197.2</ele>
        <time>2020-02-08T11:48:13Z</time>
      </trkpt>
      <trkpt lat="56.868947916827" lon="14.841644168001">
        <ele>197.6</ele>
        <time>2020-02-08T11:48:14Z</time>
      </trkpt>
      <trkpt lat="56.86893341614" lon="14.841651292616">
        <ele>197.8</ele>
        <time>2020-02-08T11:48:16Z</time>
      </trkpt>
      <trkpt lat="56.86890156492" lon="14.841677863239">
        <ele>197.8</ele>
        <time>2020-02-08T11:48:19Z</time>
      </trkpt>
      <trkpt lat="56.868886309862" lon="14.841676773592">
        <ele>197.8</ele>
        <time>2020-02-08T11:48:21Z</time>
      </trkpt>
      <trkpt lat="56.868893518296" lon="14.841648358951">
        <ele>198</ele>
        <time>2020-02-08T11:48:25Z</time>
      </trkpt>
      <trkpt lat="56.868955963451" lon="14.841712731943">
        <ele>197.8</ele>
        <time>2020-02-08T11:48:30Z</time>
      </trkpt>
      <trkpt lat="56.868973984536" lon="14.841759502945">
        <ele>197.6</ele>
        <time>2020-02-08T11:48:32Z</time>
      </trkpt>
      <trkpt lat="56.869023018651" lon="14.841791018889">
        <ele>196.8</ele>
        <time>2020-02-08T11:48:35Z</time>
      </trkpt>
      <trkpt lat="56.869096527914" lon="14.841770986148">
        <ele>196.4</ele>
        <time>2020-02-08T11:48:38Z</time>
      </trkpt>
      <trkpt lat="56.869142544545" lon="14.84176159842">
        <ele>195.4</ele>
        <time>2020-02-08T11:48:40Z</time>
      </trkpt>
      <trkpt lat="56.869195099058" lon="14.84175824566">
        <ele>194</ele>
        <time>2020-02-08T11:48:42Z</time>
      </trkpt>
      <trkpt lat="56.869236589463" lon="14.841794706925">
        <ele>192.8</ele>
        <time>2020-02-08T11:48:44Z</time>
      </trkpt>
      <trkpt lat="56.869257879489" lon="14.841803927015">
        <ele>192.6</ele>
        <time>2020-02-08T11:48:45Z</time>
      </trkpt>
      <trkpt lat="56.869347398181" lon="14.84184122647">
        <ele>192.4</ele>
        <time>2020-02-08T11:48:49Z</time>
      </trkpt>
      <trkpt lat="56.869378327392" lon="14.841883555065">
        <ele>192</ele>
        <time>2020-02-08T11:48:51Z</time>
      </trkpt>
      <trkpt lat="56.869480251296" lon="14.841934433198">
        <ele>192.8</ele>
        <time>2020-02-08T11:48:55Z</time>
      </trkpt>
      <trkpt lat="56.86956960235" lon="14.841934768474">
        <ele>193.8</ele>
        <time>2020-02-08T11:48:58Z</time>
      </trkpt>
      <trkpt lat="56.869604471054" lon="14.842039290767">
        <ele>195</ele>
        <time>2020-02-08T11:49:01Z</time>
      </trkpt>
      <trkpt lat="56.869690972262" lon="14.842345649212">
        <ele>194.6</ele>
        <time>2020-02-08T11:49:07Z</time>
      </trkpt>
      <trkpt lat="56.869768923932" lon="14.84258973014">
        <ele>195.6</ele>
        <time>2020-02-08T11:49:13Z</time>
      </trkpt>
      <trkpt lat="56.869784849542" lon="14.84262241955">
        <ele>196</ele>
        <time>2020-02-08T11:49:14Z</time>
      </trkpt>
      <trkpt lat="56.869833380743" lon="14.842657958806">
        <ele>197.4</ele>
        <time>2020-02-08T11:49:17Z</time>
      </trkpt>
      <trkpt lat="56.869877720994" lon="14.842661730661">
        <ele>198.4</ele>
        <time>2020-02-08T11:49:19Z</time>
      </trkpt>
      <trkpt lat="56.869925581643" lon="14.842666340706">
        <ele>199.6</ele>
        <time>2020-02-08T11:49:21Z</time>
      </trkpt>
      <trkpt lat="56.869963803107" lon="14.842679332651">
        <ele>200.6</ele>
        <time>2020-02-08T11:49:23Z</time>
      </trkpt>
      <trkpt lat="56.87002976866" lon="14.84272300235">
        <ele>201.8</ele>
        <time>2020-02-08T11:49:26Z</time>
      </trkpt>
      <trkpt lat="56.870088777236" lon="14.842797517441">
        <ele>203</ele>
        <time>2020-02-08T11:49:29Z</time>
      </trkpt>
      <trkpt lat="56.870130183822" lon="14.842928275081">
        <ele>204.2</ele>
        <time>2020-02-08T11:49:32Z</time>
      </trkpt>
      <trkpt lat="56.870141834663" lon="14.843112173967">
        <ele>204.8</ele>
        <time>2020-02-08T11:49:37Z</time>
      </trkpt>
      <trkpt lat="56.870154910427" lon="14.843187191972">
        <ele>204.6</ele>
        <time>2020-02-08T11:49:41Z</time>
      </trkpt>
      <trkpt lat="56.870285081334" lon="14.843195070958">
        <ele>204.4</ele>
        <time>2020-02-08T11:50:46Z</time>
      </trkpt>
      <trkpt lat="56.870275777425" lon="14.843236058449">
        <ele>203.2</ele>
        <time>2020-02-08T11:51:41Z</time>
      </trkpt>
      <trkpt lat="56.870304611161" lon="14.84324770929">
        <ele>203.2</ele>
        <time>2020-02-08T11:51:43Z</time>
      </trkpt>
      <trkpt lat="56.87031894421" lon="14.84324435653">
        <ele>203</ele>
        <time>2020-02-08T11:51:45Z</time>
      </trkpt>
      <trkpt lat="56.870450120945" lon="14.843294145016">
        <ele>202.6</ele>
        <time>2020-02-08T11:51:54Z</time>
      </trkpt>
      <trkpt lat="56.870478870862" lon="14.84331560268">
        <ele>201.8</ele>
        <time>2020-02-08T11:51:56Z</time>
      </trkpt>
      <trkpt lat="56.870502088725" lon="14.843319961268">
        <ele>200.4</ele>
        <time>2020-02-08T11:51:58Z</time>
      </trkpt>
      <trkpt lat="56.870520864181" lon="14.843336725068">
        <ele>198.4</ele>
        <time>2020-02-08T11:52:00Z</time>
      </trkpt>
      <trkpt lat="56.87052513895" lon="14.843330773919">
        <ele>197.4</ele>
        <time>2020-02-08T11:52:01Z</time>
      </trkpt>
      <trkpt lat="56.870520361267" lon="14.84333152829">
        <ele>196</ele>
        <time>2020-02-08T11:52:03Z</time>
      </trkpt>
      <trkpt lat="56.87059470872" lon="14.843073281951">
        <ele>194.8</ele>
        <time>2020-02-08T11:52:11Z</time>
      </trkpt>
      <trkpt lat="56.870632846365" lon="14.843069007182">
        <ele>193.6</ele>
        <time>2020-02-08T11:52:13Z</time>
      </trkpt>
      <trkpt lat="56.870707193818" lon="14.84316724305">
        <ele>193</ele>
        <time>2020-02-08T11:52:17Z</time>
      </trkpt>
      <trkpt lat="56.870729741129" lon="14.843549206233">
        <ele>193.6</ele>
        <time>2020-02-08T11:52:24Z</time>
      </trkpt>
      <trkpt lat="56.870808028075" lon="14.843837711231">
        <ele>193</ele>
        <time>2020-02-08T11:52:29Z</time>
      </trkpt>
      <trkpt lat="56.870836442716" lon="14.84386545532">
        <ele>192.4</ele>
        <time>2020-02-08T11:52:30Z</time>
      </trkpt>
      <trkpt lat="56.870953202583" lon="14.844100232339">
        <ele>191.2</ele>
        <time>2020-02-08T11:52:37Z</time>
      </trkpt>
      <trkpt lat="56.871056719048" lon="14.844158570363">
        <ele>191</ele>
        <time>2020-02-08T11:52:45Z</time>
      </trkpt>
      <trkpt lat="56.871220417555" lon="14.844298548093">
        <ele>191.4</ele>
        <time>2020-02-08T11:52:54Z</time>
      </trkpt>
      <trkpt lat="56.871306499668" lon="14.844442800592">
        <ele>191</ele>
        <time>2020-02-08T11:53:00Z</time>
      </trkpt>
      <trkpt lat="56.871327370599" lon="14.844469371215">
        <ele>190.8</ele>
        <time>2020-02-08T11:53:02Z</time>
      </trkpt>
      <trkpt lat="56.87139601836" lon="14.844504491376">
        <ele>190.6</ele>
        <time>2020-02-08T11:53:07Z</time>
      </trkpt>
      <trkpt lat="56.871430048874" lon="14.844537599881">
        <ele>190.8</ele>
        <time>2020-02-08T11:53:09Z</time>
      </trkpt>
      <trkpt lat="56.871485620871" lon="14.844599123027">
        <ele>191</ele>
        <time>2020-02-08T11:53:12Z</time>
      </trkpt>
      <trkpt lat="56.871514873702" lon="14.844671207367">
        <ele>191.2</ele>
        <time>2020-02-08T11:53:14Z</time>
      </trkpt>
      <trkpt lat="56.871542617791" lon="14.844737256739">
        <ele>191.6</ele>
        <time>2020-02-08T11:53:17Z</time>
      </trkpt>
      <trkpt lat="56.871578827599" lon="14.844787129044">
        <ele>192.4</ele>
        <time>2020-02-08T11:53:20Z</time>
      </trkpt>
      <trkpt lat="56.871589304974" lon="14.84479081708">
        <ele>192.6</ele>
        <time>2020-02-08T11:53:21Z</time>
      </trkpt>
      <trkpt lat="56.871592657734" lon="14.844795510944">
        <ele>192.8</ele>
        <time>2020-02-08T11:53:22Z</time>
      </trkpt>
      <trkpt lat="56.871586371309" lon="14.844624520184">
        <ele>192</ele>
        <time>2020-02-08T11:53:31Z</time>
      </trkpt>
      <trkpt lat="56.871548988035" lon="14.844484207178">
        <ele>192</ele>
        <time>2020-02-08T11:53:35Z</time>
      </trkpt>
      <trkpt lat="56.871515376616" lon="14.844394772305">
        <ele>191.8</ele>
        <time>2020-02-08T11:53:37Z</time>
      </trkpt>
      <trkpt lat="56.871487045794" lon="14.84432394525">
        <ele>191.4</ele>
        <time>2020-02-08T11:53:39Z</time>
      </trkpt>
      <trkpt lat="56.871328795522" lon="14.844123114926">
        <ele>191</ele>
        <time>2020-02-08T11:53:47Z</time>
      </trkpt>
      <trkpt lat="56.871164845558" lon="14.843989423621">
        <ele>191.4</ele>
        <time>2020-02-08T11:53:53Z</time>
      </trkpt>
      <trkpt lat="56.871140454229" lon="14.843958997324">
        <ele>191.6</ele>
        <time>2020-02-08T11:53:54Z</time>
      </trkpt>
      <trkpt lat="56.871045068207" lon="14.843962182446">
        <ele>192.6</ele>
        <time>2020-02-08T11:53:57Z</time>
      </trkpt>
      <trkpt lat="56.870856726914" lon="14.843953800546">
        <ele>191.8</ele>
        <time>2020-02-08T11:54:03Z</time>
      </trkpt>
      <trkpt lat="56.870721359229" lon="14.843790604953">
        <ele>192</ele>
        <time>2020-02-08T11:54:08Z</time>
      </trkpt>
      <trkpt lat="56.870678192444" lon="14.84375481424">
        <ele>192.2</ele>
        <time>2020-02-08T11:54:10Z</time>
      </trkpt>
      <trkpt lat="56.870632175813" lon="14.843701924451">
        <ele>192.4</ele>
        <time>2020-02-08T11:54:12Z</time>
      </trkpt>
      <trkpt lat="56.870533688488" lon="14.843530682234">
        <ele>193.8</ele>
        <time>2020-02-08T11:54:17Z</time>
      </trkpt>
      <trkpt lat="56.870494377377" lon="14.843465219595">
        <ele>195.4</ele>
        <time>2020-02-08T11:54:19Z</time>
      </trkpt>
      <trkpt lat="56.870469650772" lon="14.843442085551">
        <ele>196.4</ele>
        <time>2020-02-08T11:54:20Z</time>
      </trkpt>
      <trkpt lat="56.870433943878" lon="14.843411910711">
        <ele>198.2</ele>
        <time>2020-02-08T11:54:22Z</time>
      </trkpt>
      <trkpt lat="56.870400667735" lon="14.843372934876">
        <ele>199.2</ele>
        <time>2020-02-08T11:54:24Z</time>
      </trkpt>
      <trkpt lat="56.870343335539" lon="14.843336725068">
        <ele>200.8</ele>
        <time>2020-02-08T11:54:27Z</time>
      </trkpt>
      <trkpt lat="56.870306958093" lon="14.843314680671">
        <ele>201.8</ele>
        <time>2020-02-08T11:54:29Z</time>
      </trkpt>
      <trkpt lat="56.870276531796" lon="14.843290959894">
        <ele>202.6</ele>
        <time>2020-02-08T11:54:31Z</time>
      </trkpt>
      <trkpt lat="56.870262450204" lon="14.843292384817">
        <ele>203</ele>
        <time>2020-02-08T11:54:32Z</time>
      </trkpt>
      <trkpt lat="56.870251972829" lon="14.843296994862">
        <ele>203.8</ele>
        <time>2020-02-08T11:54:34Z</time>
      </trkpt>
      <trkpt lat="56.870260103272" lon="14.843192304931">
        <ele>203.8</ele>
        <time>2020-02-08T11:55:58Z</time>
      </trkpt>
      <trkpt lat="56.870229341699" lon="14.843094655796">
        <ele>203.8</ele>
        <time>2020-02-08T11:56:41Z</time>
      </trkpt>
      <trkpt lat="56.870203944542" lon="14.843086609172">
        <ele>204</ele>
        <time>2020-02-08T11:56:42Z</time>
      </trkpt>
      <trkpt lat="56.870174440254" lon="14.843086106258">
        <ele>203</ele>
        <time>2020-02-08T11:56:43Z</time>
      </trkpt>
      <trkpt lat="56.870151138572" lon="14.843070432105">
        <ele>202.8</ele>
        <time>2020-02-08T11:56:44Z</time>
      </trkpt>
      <trkpt lat="56.870136134971" lon="14.843036904505">
        <ele>201.4</ele>
        <time>2020-02-08T11:56:45Z</time>
      </trkpt>
      <trkpt lat="56.870057764206" lon="14.842892232911">
        <ele>200.4</ele>
        <time>2020-02-08T11:56:51Z</time>
      </trkpt>
      <trkpt lat="56.870011663756" lon="14.842759295977">
        <ele>199.4</ele>
        <time>2020-02-08T11:56:55Z</time>
      </trkpt>
      <trkpt lat="56.869969251342" lon="14.842734904648">
        <ele>198.8</ele>
        <time>2020-02-08T11:56:57Z</time>
      </trkpt>
      <trkpt lat="56.869945195289" lon="14.84273641339">
        <ele>198.4</ele>
        <time>2020-02-08T11:56:58Z</time>
      </trkpt>
      <trkpt lat="56.869881660487" lon="14.842696096451">
        <ele>196.8</ele>
        <time>2020-02-08T11:57:01Z</time>
      </trkpt>
      <trkpt lat="56.869840002444" lon="14.842641949377">
        <ele>195.4</ele>
        <time>2020-02-08T11:57:03Z</time>
      </trkpt>
      <trkpt lat="56.869809492328" lon="14.842566847553">
        <ele>194</ele>
        <time>2020-02-08T11:57:05Z</time>
      </trkpt>
      <trkpt lat="56.869716201781" lon="14.84226535061">
        <ele>193.4</ele>
        <time>2020-02-08T11:57:12Z</time>
      </trkpt>
      <trkpt lat="56.869718548713" lon="14.842236768331">
        <ele>193</ele>
        <time>2020-02-08T11:57:14Z</time>
      </trkpt>
      <trkpt lat="56.869670771883" lon="14.842112632392">
        <ele>192</ele>
        <time>2020-02-08T11:57:20Z</time>
      </trkpt>
      <trkpt lat="56.869591479109" lon="14.841969637178">
        <ele>190.8</ele>
        <time>2020-02-08T11:57:34Z</time>
      </trkpt>
      <trkpt lat="56.86956876416" lon="14.841918842864">
        <ele>189.6</ele>
        <time>2020-02-08T11:57:36Z</time>
      </trkpt>
      <trkpt lat="56.869583348666" lon="14.841756485461">
        <ele>188.6</ele>
        <time>2020-02-08T11:57:39Z</time>
      </trkpt>
      <trkpt lat="56.869613858782" lon="14.84163503173">
        <ele>187.4</ele>
        <time>2020-02-08T11:57:42Z</time>
      </trkpt>
      <trkpt lat="56.869634478256" lon="14.841477535829">
        <ele>186.4</ele>
        <time>2020-02-08T11:57:45Z</time>
      </trkpt>
      <trkpt lat="56.869625677261" lon="14.841384915834">
        <ele>185.2</ele>
        <time>2020-02-08T11:57:47Z</time>
      </trkpt>
      <trkpt lat="56.869608075271" lon="14.841253152366">
        <ele>184</ele>
        <time>2020-02-08T11:57:50Z</time>
      </trkpt>
      <trkpt lat="56.869605895977" lon="14.84097705258">
        <ele>182.8</ele>
        <time>2020-02-08T11:57:56Z</time>
      </trkpt>
      <trkpt lat="56.86961318823" lon="14.840888372078">
        <ele>181.6</ele>
        <time>2020-02-08T11:57:58Z</time>
      </trkpt>
      <trkpt lat="56.869596592068" lon="14.840765493424">
        <ele>180.4</ele>
        <time>2020-02-08T11:58:01Z</time>
      </trkpt>
      <trkpt lat="56.869569686169" lon="14.840700198423">
        <ele>179.6</ele>
        <time>2020-02-08T11:58:03Z</time>
      </trkpt>
      <trkpt lat="56.86957211692" lon="14.840664240072">
        <ele>179.2</ele>
        <time>2020-02-08T11:58:05Z</time>
      </trkpt>
      <trkpt lat="56.86956624959" lon="14.840511689492">
        <ele>178.6</ele>
        <time>2020-02-08T11:58:10Z</time>
      </trkpt>
      <trkpt lat="56.869563651201" lon="14.840427619035">
        <ele>178</ele>
        <time>2020-02-08T11:58:12Z</time>
      </trkpt>
      <trkpt lat="56.869500284037" lon="14.840130648318">
        <ele>176.8</ele>
        <time>2020-02-08T11:58:17Z</time>
      </trkpt>
      <trkpt lat="56.869457955442" lon="14.839992095511">
        <ele>175.4</ele>
        <time>2020-02-08T11:58:20Z</time>
      </trkpt>
      <trkpt lat="56.869403892187" lon="14.839827391176">
        <ele>174.2</ele>
        <time>2020-02-08T11:58:24Z</time>
      </trkpt>
      <trkpt lat="56.869392576622" lon="14.83979017554">
        <ele>173.4</ele>
        <time>2020-02-08T11:58:26Z</time>
      </trkpt>
      <trkpt lat="56.869394001545" lon="14.839780871631">
        <ele>173.2</ele>
        <time>2020-02-08T11:58:27Z</time>
      </trkpt>
      <trkpt lat="56.869412106449" lon="14.839820098923">
        <ele>173</ele>
        <time>2020-02-08T11:58:33Z</time>
      </trkpt>
      <trkpt lat="56.86947404869" lon="14.839811465566">
        <ele>173.8</ele>
        <time>2020-02-08T11:58:39Z</time>
      </trkpt>
      <trkpt lat="56.869483101142" lon="14.839815740335">
        <ele>174.2</ele>
        <time>2020-02-08T11:58:41Z</time>
      </trkpt>
      <trkpt lat="56.86945896127" lon="14.8397935283">
        <ele>174.6</ele>
        <time>2020-02-08T11:58:54Z</time>
      </trkpt>
      <trkpt lat="56.869441526918" lon="14.839835773076">
        <ele>174.2</ele>
        <time>2020-02-08T11:58:56Z</time>
      </trkpt>
      <trkpt lat="56.869502798607" lon="14.840069795724">
        <ele>175.4</ele>
        <time>2020-02-08T11:59:03Z</time>
      </trkpt>
      <trkpt lat="56.869517718389" lon="14.840144562272">
        <ele>176.4</ele>
        <time>2020-02-08T11:59:05Z</time>
      </trkpt>
      <trkpt lat="56.869535823293" lon="14.840304321286">
        <ele>177.8</ele>
        <time>2020-02-08T11:59:09Z</time>
      </trkpt>
      <trkpt lat="56.869545713935" lon="14.840520490487">
        <ele>178.6</ele>
        <time>2020-02-08T11:59:14Z</time>
      </trkpt>
      <trkpt lat="56.869560046984" lon="14.840559131046">
        <ele>178.8</ele>
        <time>2020-02-08T11:59:15Z</time>
      </trkpt>
      <trkpt lat="56.869600028647" lon="14.840742107923">
        <ele>180</ele>
        <time>2020-02-08T11:59:19Z</time>
      </trkpt>
      <trkpt lat="56.869596172973" lon="14.840885270775">
        <ele>181.4</ele>
        <time>2020-02-08T11:59:22Z</time>
      </trkpt>
      <trkpt lat="56.869593658403" lon="14.841035390604">
        <ele>182.6</ele>
        <time>2020-02-08T11:59:26Z</time>
      </trkpt>
      <trkpt lat="56.869597681715" lon="14.841112420265">
        <ele>183.8</ele>
        <time>2020-02-08T11:59:28Z</time>
      </trkpt>
      <trkpt lat="56.869616038076" lon="14.841174446325">
        <ele>184.4</ele>
        <time>2020-02-08T11:59:30Z</time>
      </trkpt>
      <trkpt lat="56.869648476029" lon="14.841248961416">
        <ele>184.8</ele>
        <time>2020-02-08T11:59:32Z</time>
      </trkpt>
      <trkpt lat="56.869688373873" lon="14.841471081766">
        <ele>185.6</ele>
        <time>2020-02-08T11:59:37Z</time>
      </trkpt>
      <trkpt lat="56.869711927012" lon="14.841496227466">
        <ele>186</ele>
        <time>2020-02-08T11:59:39Z</time>
      </trkpt>
      <trkpt lat="56.869726176242" lon="14.841512069257">
        <ele>186.4</ele>
        <time>2020-02-08T11:59:40Z</time>
      </trkpt>
      <trkpt lat="56.869740257834" lon="14.841578705362">
        <ele>186.8</ele>
        <time>2020-02-08T11:59:43Z</time>
      </trkpt>
      <trkpt lat="56.869734558142" lon="14.841624721993">
        <ele>187.2</ele>
        <time>2020-02-08T11:59:45Z</time>
      </trkpt>
      <trkpt lat="56.869744532603" lon="14.841648526589">
        <ele>188.2</ele>
        <time>2020-02-08T11:59:47Z</time>
      </trkpt>
      <trkpt lat="56.869761128765" lon="14.841686077501">
        <ele>189.4</ele>
        <time>2020-02-08T11:59:49Z</time>
      </trkpt>
      <trkpt lat="56.8697749589" lon="14.841733183779">
        <ele>190.4</ele>
        <time>2020-02-08T11:59:51Z</time>
      </trkpt>
      <trkpt lat="56.869810079061" lon="14.841813230924">
        <ele>191.6</ele>
        <time>2020-02-08T11:59:54Z</time>
      </trkpt>
      <trkpt lat="56.869839918625" lon="14.841895038268">
        <ele>192</ele>
        <time>2020-02-08T11:59:56Z</time>
      </trkpt>
      <trkpt lat="56.869861124832" lon="14.842137526635">
        <ele>192.8</ele>
        <time>2020-02-08T12:00:02Z</time>
      </trkpt>
      <trkpt lat="56.869889036559" lon="14.842245317869">
        <ele>192.8</ele>
        <time>2020-02-08T12:00:05Z</time>
      </trkpt>
      <trkpt lat="56.869909572214" lon="14.842570200313">
        <ele>192.6</ele>
        <time>2020-02-08T12:00:14Z</time>
      </trkpt>
      <trkpt lat="56.869928850584" lon="14.842651672381">
        <ele>194.2</ele>
        <time>2020-02-08T12:00:17Z</time>
      </trkpt>
      <trkpt lat="56.869929604955" lon="14.84267774009">
        <ele>194.8</ele>
        <time>2020-02-08T12:00:18Z</time>
      </trkpt>
      <trkpt lat="56.86994511147" lon="14.8426936657">
        <ele>195.4</ele>
        <time>2020-02-08T12:00:19Z</time>
      </trkpt>
      <trkpt lat="56.869997163069" lon="14.842715374821">
        <ele>196.8</ele>
        <time>2020-02-08T12:00:22Z</time>
      </trkpt>
      <trkpt lat="56.870037228551" lon="14.842713446984">
        <ele>197.8</ele>
        <time>2020-02-08T12:00:24Z</time>
      </trkpt>
      <trkpt lat="56.870071259065" lon="14.842727863852">
        <ele>198.8</ele>
        <time>2020-02-08T12:00:26Z</time>
      </trkpt>
      <trkpt lat="56.870101685362" lon="14.842770108628">
        <ele>200</ele>
        <time>2020-02-08T12:00:28Z</time>
      </trkpt>
      <trkpt lat="56.870149881287" lon="14.84284370171">
        <ele>201</ele>
        <time>2020-02-08T12:00:32Z</time>
      </trkpt>
      <trkpt lat="56.87015717354" lon="14.842878151319">
        <ele>201.4</ele>
        <time>2020-02-08T12:00:33Z</time>
      </trkpt>
      <trkpt lat="56.87017561372" lon="14.843036904505">
        <ele>202</ele>
        <time>2020-02-08T12:00:37Z</time>
      </trkpt>
      <trkpt lat="56.870191120235" lon="14.84316556667">
        <ele>202.2</ele>
        <time>2020-02-08T12:00:41Z</time>
      </trkpt>
      <trkpt lat="56.8702108177" lon="14.843198842813">
        <ele>204.2</ele>
        <time>2020-02-08T12:00:44Z</time>
      </trkpt>
      <trkpt lat="56.870320704409" lon="14.843241171408">
        <ele>204.8</ele>
        <time>2020-02-08T12:01:31Z</time>
      </trkpt>
      <trkpt lat="56.870330846508" lon="14.843395733644">
        <ele>204.6</ele>
        <time>2020-02-08T12:02:17Z</time>
      </trkpt>
      <trkpt lat="56.870321794056" lon="14.84345474222">
        <ele>204.2</ele>
        <time>2020-02-08T12:02:19Z</time>
      </trkpt>
      <trkpt lat="56.870316262002" lon="14.843502686688">
        <ele>203.4</ele>
        <time>2020-02-08T12:02:21Z</time>
      </trkpt>
      <trkpt lat="56.870315842907" lon="14.843516181547">
        <ele>202.8</ele>
        <time>2020-02-08T12:02:22Z</time>
      </trkpt>
      <trkpt lat="56.870310227034" lon="14.843561276169">
        <ele>201.2</ele>
        <time>2020-02-08T12:02:24Z</time>
      </trkpt>
      <trkpt lat="56.870311987233" lon="14.843596061054">
        <ele>200.6</ele>
        <time>2020-02-08T12:02:25Z</time>
      </trkpt>
      <trkpt lat="56.870312490147" lon="14.843625984437">
        <ele>200</ele>
        <time>2020-02-08T12:02:26Z</time>
      </trkpt>
      <trkpt lat="56.870312741604" lon="14.843669737955">
        <ele>199.4</ele>
        <time>2020-02-08T12:02:27Z</time>
      </trkpt>
      <trkpt lat="56.870312825423" lon="14.843717682423">
        <ele>198.6</ele>
        <time>2020-02-08T12:02:28Z</time>
      </trkpt>
      <trkpt lat="56.870314585622" lon="14.84377073985">
        <ele>197.4</ele>
        <time>2020-02-08T12:02:29Z</time>
      </trkpt>
      <trkpt lat="56.87033235525" lon="14.843888254088">
        <ele>196.2</ele>
        <time>2020-02-08T12:02:32Z</time>
      </trkpt>
      <trkpt lat="56.870360434615" lon="14.843939048402">
        <ele>195.4</ele>
        <time>2020-02-08T12:02:34Z</time>
      </trkpt>
      <trkpt lat="56.870498903603" lon="14.844204000261">
        <ele>196.6</ele>
        <time>2020-02-08T12:02:43Z</time>
      </trkpt>
      <trkpt lat="56.870562270767" lon="14.844406423146">
        <ele>195</ele>
        <time>2020-02-08T12:02:47Z</time>
      </trkpt>
      <trkpt lat="56.870590014856" lon="14.844553357853">
        <ele>193.8</ele>
        <time>2020-02-08T12:02:50Z</time>
      </trkpt>
      <trkpt lat="56.870601833335" lon="14.844692916488">
        <ele>192.6</ele>
        <time>2020-02-08T12:02:53Z</time>
      </trkpt>
      <trkpt lat="56.870586410639" lon="14.845022241339">
        <ele>192.6</ele>
        <time>2020-02-08T12:03:01Z</time>
      </trkpt>
      <trkpt lat="56.870591104503" lon="14.845051661808">
        <ele>192.8</ele>
        <time>2020-02-08T12:03:02Z</time>
      </trkpt>
      <trkpt lat="56.870640390075" lon="14.845400684124">
        <ele>192.6</ele>
        <time>2020-02-08T12:03:09Z</time>
      </trkpt>
      <trkpt lat="56.870652040916" lon="14.845624397035">
        <ele>191.4</ele>
        <time>2020-02-08T12:03:13Z</time>
      </trkpt>
      <trkpt lat="56.870611221063" lon="14.845953889524">
        <ele>190.6</ele>
        <time>2020-02-08T12:03:20Z</time>
      </trkpt>
      <trkpt lat="56.870603844991" lon="14.84597266498">
        <ele>190.6</ele>
        <time>2020-02-08T12:03:21Z</time>
      </trkpt>
      <trkpt lat="56.870512733738" lon="14.846340462752">
        <ele>192</ele>
        <time>2020-02-08T12:03:29Z</time>
      </trkpt>
      <trkpt lat="56.870491192255" lon="14.846451690565">
        <ele>192.4</ele>
        <time>2020-02-08T12:03:31Z</time>
      </trkpt>
      <trkpt lat="56.870453725162" lon="14.846621591678">
        <ele>192.4</ele>
        <time>2020-02-08T12:03:35Z</time>
      </trkpt>
      <trkpt lat="56.87048406764" lon="14.846785290185">
        <ele>192.4</ele>
        <time>2020-02-08T12:03:39Z</time>
      </trkpt>
      <trkpt lat="56.870615831108" lon="14.847070610061">
        <ele>192.8</ele>
        <time>2020-02-08T12:03:46Z</time>
      </trkpt>
      <trkpt lat="56.870706690904" lon="14.847376046497">
        <ele>192.8</ele>
        <time>2020-02-08T12:03:53Z</time>
      </trkpt>
      <trkpt lat="56.870701913221" lon="14.84739172065">
        <ele>192.8</ele>
        <time>2020-02-08T12:03:54Z</time>
      </trkpt>
      <trkpt lat="56.87069780609" lon="14.847400354007">
        <ele>192.6</ele>
        <time>2020-02-08T12:03:55Z</time>
      </trkpt>
      <trkpt lat="56.870693698959" lon="14.847423739508">
        <ele>192.6</ele>
        <time>2020-02-08T12:03:57Z</time>
      </trkpt>
      <trkpt lat="56.870688753638" lon="14.847527926525">
        <ele>193.2</ele>
        <time>2020-02-08T12:04:01Z</time>
      </trkpt>
      <trkpt lat="56.870684478869" lon="14.847612499896">
        <ele>193.6</ele>
        <time>2020-02-08T12:04:03Z</time>
      </trkpt>
      <trkpt lat="56.870701326488" lon="14.847635885397">
        <ele>193.8</ele>
        <time>2020-02-08T12:04:05Z</time>
      </trkpt>
      <trkpt lat="56.870844908435" lon="14.847689529557">
        <ele>194</ele>
        <time>2020-02-08T12:04:13Z</time>
      </trkpt>
      <trkpt lat="56.870891344161" lon="14.84741099902">
        <ele>193</ele>
        <time>2020-02-08T12:04:20Z</time>
      </trkpt>
      <trkpt lat="56.870875586189" lon="14.847374202479">
        <ele>192.4</ele>
        <time>2020-02-08T12:04:21Z</time>
      </trkpt>
      <trkpt lat="56.870765950937" lon="14.847254508947">
        <ele>191.4</ele>
        <time>2020-02-08T12:04:27Z</time>
      </trkpt>
      <trkpt lat="56.870630080338" lon="14.847020989213">
        <ele>191.8</ele>
        <time>2020-02-08T12:04:34Z</time>
      </trkpt>
      <trkpt lat="56.870611640158" lon="14.846992239296">
        <ele>191.8</ele>
        <time>2020-02-08T12:04:35Z</time>
      </trkpt>
      <trkpt lat="56.870649610165" lon="14.846632069053">
        <ele>192.2</ele>
        <time>2020-02-08T12:04:42Z</time>
      </trkpt>
      <trkpt lat="56.870653549658" lon="14.846596948892">
        <ele>192.2</ele>
        <time>2020-02-08T12:04:43Z</time>
      </trkpt>
      <trkpt lat="56.87071876084" lon="14.84623753302">
        <ele>192.2</ele>
        <time>2020-02-08T12:04:49Z</time>
      </trkpt>
      <trkpt lat="56.870730244043" lon="14.846123036266">
        <ele>192.4</ele>
        <time>2020-02-08T12:04:51Z</time>
      </trkpt>
      <trkpt lat="56.870728986758" lon="14.845818521839">
        <ele>191.8</ele>
        <time>2020-02-08T12:04:56Z</time>
      </trkpt>
      <trkpt lat="56.870707193818" lon="14.8457195316">
        <ele>191.2</ele>
        <time>2020-02-08T12:04:58Z</time>
      </trkpt>
      <trkpt lat="56.870639635704" lon="14.845377466261">
        <ele>191.4</ele>
        <time>2020-02-08T12:05:04Z</time>
      </trkpt>
      <trkpt lat="56.870650280717" lon="14.845139839396">
        <ele>192.6</ele>
        <time>2020-02-08T12:05:08Z</time>
      </trkpt>
      <trkpt lat="56.870665284318" lon="14.844750164865">
        <ele>193.4</ele>
        <time>2020-02-08T12:05:14Z</time>
      </trkpt>
      <trkpt lat="56.870651957097" lon="14.844637595948">
        <ele>193.4</ele>
        <time>2020-02-08T12:05:18Z</time>
      </trkpt>
      <trkpt lat="56.87061147252" lon="14.844476747287">
        <ele>193.8</ele>
        <time>2020-02-08T12:05:22Z</time>
      </trkpt>
      <trkpt lat="56.870579788938" lon="14.844410027363">
        <ele>194.6</ele>
        <time>2020-02-08T12:05:24Z</time>
      </trkpt>
      <trkpt lat="56.870564450061" lon="14.844387563871">
        <ele>195</ele>
        <time>2020-02-08T12:05:25Z</time>
      </trkpt>
      <trkpt lat="56.870535029592" lon="14.844314222246">
        <ele>195.2</ele>
        <time>2020-02-08T12:05:27Z</time>
      </trkpt>
      <trkpt lat="56.87048239126" lon="14.844261248638">
        <ele>196.2</ele>
        <time>2020-02-08T12:05:30Z</time>
      </trkpt>
      <trkpt lat="56.870396979699" lon="14.844118085786">
        <ele>197</ele>
        <time>2020-02-08T12:05:34Z</time>
      </trkpt>
      <trkpt lat="56.870382981926" lon="14.844068967852">
        <ele>197.2</ele>
        <time>2020-02-08T12:05:35Z</time>
      </trkpt>
      <trkpt lat="56.870338641675" lon="14.843843410923">
        <ele>196.6</ele>
        <time>2020-02-08T12:05:39Z</time>
      </trkpt>
      <trkpt lat="56.870295642528" lon="14.843691279438">
        <ele>198.8</ele>
        <time>2020-02-08T12:05:45Z</time>
      </trkpt>
      <trkpt lat="56.870279633099" lon="14.843635120708">
        <ele>199.8</ele>
        <time>2020-02-08T12:05:47Z</time>
      </trkpt>
      <trkpt lat="56.870281058022" lon="14.843618608365">
        <ele>200</ele>
        <time>2020-02-08T12:05:48Z</time>
      </trkpt>
      <trkpt lat="56.870281812393" lon="14.843597821253">
        <ele>200</ele>
        <time>2020-02-08T12:05:49Z</time>
      </trkpt>
      <trkpt lat="56.870284997515" lon="14.843538225944">
        <ele>201.8</ele>
        <time>2020-02-08T12:05:52Z</time>
      </trkpt>
      <trkpt lat="56.870277286167" lon="14.843501429403">
        <ele>203.4</ele>
        <time>2020-02-08T12:05:54Z</time>
      </trkpt>
      <trkpt lat="56.870269910095" lon="14.843477960083">
        <ele>204.2</ele>
        <time>2020-02-08T12:05:56Z</time>
      </trkpt>
      <trkpt lat="56.870264210403" lon="14.843460525731">
        <ele>204.4</ele>
        <time>2020-02-08T12:05:57Z</time>
      </trkpt>
      <trkpt lat="56.870234119382" lon="14.843410653426">
        <ele>205</ele>
        <time>2020-02-08T12:06:00Z</time>
      </trkpt>
      <trkpt lat="56.870227665319" lon="14.843383579889">
        <ele>205.4</ele>
        <time>2020-02-08T12:06:02Z</time>
      </trkpt>
      <trkpt lat="56.870318776572" lon="14.843308561884">
        <ele>205.8</ele>
        <time>2020-02-08T12:15:33Z</time>
      </trkpt>
      <trkpt lat="56.870364625565" lon="14.843293642102">
        <ele>204.6</ele>
        <time>2020-02-08T12:15:39Z</time>
      </trkpt>
      <trkpt lat="56.870426735444" lon="14.843259192493">
        <ele>203.8</ele>
        <time>2020-02-08T12:15:45Z</time>
      </trkpt>
      <trkpt lat="56.870437715733" lon="14.843239243571">
        <ele>203.2</ele>
        <time>2020-02-08T12:15:46Z</time>
      </trkpt>
      <trkpt lat="56.870462526157" lon="14.843198507537">
        <ele>202.2</ele>
        <time>2020-02-08T12:15:48Z</time>
      </trkpt>
      <trkpt lat="56.870505944399" lon="14.843159028788">
        <ele>201.2</ele>
        <time>2020-02-08T12:15:51Z</time>
      </trkpt>
      <trkpt lat="56.870519774534" lon="14.843128602491">
        <ele>200.8</ele>
        <time>2020-02-08T12:15:52Z</time>
      </trkpt>
      <trkpt lat="56.870561013482" lon="14.843028271148">
        <ele>199.2</ele>
        <time>2020-02-08T12:15:55Z</time>
      </trkpt>
      <trkpt lat="56.87057626854" lon="14.842964652527">
        <ele>197</ele>
        <time>2020-02-08T12:15:57Z</time>
      </trkpt>
      <trkpt lat="56.870585237173" lon="14.842941099388">
        <ele>195.2</ele>
        <time>2020-02-08T12:15:58Z</time>
      </trkpt>
      <trkpt lat="56.870607952122" lon="14.842872703084">
        <ele>196.6</ele>
        <time>2020-02-08T12:16:01Z</time>
      </trkpt>
      <trkpt lat="56.870618345678" lon="14.842858118578">
        <ele>196.8</ele>
        <time>2020-02-08T12:16:02Z</time>
      </trkpt>
      <trkpt lat="56.870662685929" lon="14.842815119431">
        <ele>194.4</ele>
        <time>2020-02-08T12:16:04Z</time>
      </trkpt>
      <trkpt lat="56.870668134164" lon="14.842740101426">
        <ele>195.2</ele>
        <time>2020-02-08T12:16:05Z</time>
      </trkpt>
      <trkpt lat="56.870674923503" lon="14.842686205809">
        <ele>195.8</ele>
        <time>2020-02-08T12:16:06Z</time>
      </trkpt>
      <trkpt lat="56.870696884081" lon="14.84245142879">
        <ele>194.6</ele>
        <time>2020-02-08T12:16:10Z</time>
      </trkpt>
      <trkpt lat="56.87070367342" lon="14.84230474554">
        <ele>193.6</ele>
        <time>2020-02-08T12:16:13Z</time>
      </trkpt>
      <trkpt lat="56.870710043664" lon="14.842207431681">
        <ele>193</ele>
        <time>2020-02-08T12:16:15Z</time>
      </trkpt>
      <trkpt lat="56.870759161598" lon="14.842072734548">
        <ele>192.6</ele>
        <time>2020-02-08T12:16:19Z</time>
      </trkpt>
      <trkpt lat="56.87079084518" lon="14.841980952743">
        <ele>192.4</ele>
        <time>2020-02-08T12:16:21Z</time>
      </trkpt>
      <trkpt lat="56.870821271477" lon="14.841906856747">
        <ele>192.6</ele>
        <time>2020-02-08T12:16:23Z</time>
      </trkpt>
      <trkpt lat="56.870924201209" lon="14.841702422206">
        <ele>193.6</ele>
        <time>2020-02-08T12:16:29Z</time>
      </trkpt>
      <trkpt lat="56.871113296873" lon="14.841569149996">
        <ele>193</ele>
        <time>2020-02-08T12:16:37Z</time>
      </trkpt>
      <trkpt lat="56.871179262426" lon="14.841237813489">
        <ele>193</ele>
        <time>2020-02-08T12:16:44Z</time>
      </trkpt>
      <trkpt lat="56.871228631817" lon="14.841034636233">
        <ele>192.4</ele>
        <time>2020-02-08T12:16:49Z</time>
      </trkpt>
      <trkpt lat="56.871234080052" lon="14.841010244904">
        <ele>192</ele>
        <time>2020-02-08T12:16:50Z</time>
      </trkpt>
      <trkpt lat="56.871279929045" lon="14.840969341232">
        <ele>191.4</ele>
        <time>2020-02-08T12:16:53Z</time>
      </trkpt>
      <trkpt lat="56.871310439161" lon="14.840951739242">
        <ele>191</ele>
        <time>2020-02-08T12:16:55Z</time>
      </trkpt>
      <trkpt lat="56.871439185145" lon="14.840869345165">
        <ele>190.2</ele>
        <time>2020-02-08T12:17:00Z</time>
      </trkpt>
      <trkpt lat="56.871463325017" lon="14.840838499773">
        <ele>190.2</ele>
        <time>2020-02-08T12:17:01Z</time>
      </trkpt>
      <trkpt lat="56.87149073383" lon="14.840765158148">
        <ele>189.8</ele>
        <time>2020-02-08T12:17:03Z</time>
      </trkpt>
      <trkpt lat="56.871613863941" lon="14.840553179897">
        <ele>189.2</ele>
        <time>2020-02-08T12:17:08Z</time>
      </trkpt>
      <trkpt lat="56.871785273796" lon="14.840424350094">
        <ele>189.2</ele>
        <time>2020-02-08T12:17:15Z</time>
      </trkpt>
      <trkpt lat="56.871865488579" lon="14.840399623489">
        <ele>188</ele>
        <time>2020-02-08T12:17:19Z</time>
      </trkpt>
      <trkpt lat="56.871899016179" lon="14.840369616287">
        <ele>188</ele>
        <time>2020-02-08T12:17:21Z</time>
      </trkpt>
      <trkpt lat="56.872086016368" lon="14.840183119012">
        <ele>187.2</ele>
        <time>2020-02-08T12:17:27Z</time>
      </trkpt>
      <trkpt lat="56.87213697832" lon="14.840108268645">
        <ele>187</ele>
        <time>2020-02-08T12:17:29Z</time>
      </trkpt>
      <trkpt lat="56.87222582646" lon="14.840031993355">
        <ele>185.6</ele>
        <time>2020-02-08T12:17:33Z</time>
      </trkpt>
      <trkpt lat="56.872306041243" lon="14.839989916217">
        <ele>184.2</ele>
        <time>2020-02-08T12:17:37Z</time>
      </trkpt>
      <trkpt lat="56.872328420916" lon="14.839989245665">
        <ele>183.8</ele>
        <time>2020-02-08T12:17:39Z</time>
      </trkpt>
      <trkpt lat="56.872477199641" lon="14.839910120529">
        <ele>184</ele>
        <time>2020-02-08T12:17:48Z</time>
      </trkpt>
      <trkpt lat="56.872674761024" lon="14.839955382789">
        <ele>185.6</ele>
        <time>2020-02-08T12:17:51Z</time>
      </trkpt>
      <trkpt lat="56.872866706534" lon="14.839915820221">
        <ele>185.4</ele>
        <time>2020-02-08T12:17:58Z</time>
      </trkpt>
      <trkpt lat="56.873036859104" lon="14.840074992502">
        <ele>186</ele>
        <time>2020-02-08T12:18:07Z</time>
      </trkpt>
      <trkpt lat="56.873106847969" lon="14.840080776013">
        <ele>185</ele>
        <time>2020-02-08T12:18:11Z</time>
      </trkpt>
      <trkpt lat="56.873135430248" lon="14.840086308067">
        <ele>185</ele>
        <time>2020-02-08T12:18:13Z</time>
      </trkpt>
      <trkpt lat="56.873170550409" lon="14.840077842348">
        <ele>185.4</ele>
        <time>2020-02-08T12:18:15Z</time>
      </trkpt>
      <trkpt lat="56.873208771873" lon="14.840032328631">
        <ele>185.6</ele>
        <time>2020-02-08T12:18:19Z</time>
      </trkpt>
      <trkpt lat="56.87325177102" lon="14.839959825196">
        <ele>185.6</ele>
        <time>2020-02-08T12:18:22Z</time>
      </trkpt>
      <trkpt lat="56.873267277535" lon="14.839920430266">
        <ele>185.6</ele>
        <time>2020-02-08T12:18:23Z</time>
      </trkpt>
      <trkpt lat="56.873378002434" lon="14.839655813683">
        <ele>186.2</ele>
        <time>2020-02-08T12:18:29Z</time>
      </trkpt>
      <trkpt lat="56.873409434559" lon="14.83962086116">
        <ele>186.2</ele>
        <time>2020-02-08T12:18:31Z</time>
      </trkpt>
      <trkpt lat="56.873419911934" lon="14.839616754029">
        <ele>186.6</ele>
        <time>2020-02-08T12:18:32Z</time>
      </trkpt>
      <trkpt lat="56.873431562775" lon="14.839613065993">
        <ele>187.4</ele>
        <time>2020-02-08T12:18:33Z</time>
      </trkpt>
      <trkpt lat="56.873447404566" lon="14.839625471205">
        <ele>188.2</ele>
        <time>2020-02-08T12:18:34Z</time>
      </trkpt>
      <trkpt lat="56.873540443656" lon="14.839687161989">
        <ele>189.2</ele>
        <time>2020-02-08T12:18:39Z</time>
      </trkpt>
      <trkpt lat="56.873558380922" lon="14.839695627708">
        <ele>189.2</ele>
        <time>2020-02-08T12:18:40Z</time>
      </trkpt>
      <trkpt lat="56.873661059197" lon="14.839766370944">
        <ele>190.2</ele>
        <time>2020-02-08T12:18:44Z</time>
      </trkpt>
      <trkpt lat="56.873830373577" lon="14.839882711716">
        <ele>191</ele>
        <time>2020-02-08T12:18:50Z</time>
      </trkpt>
      <trkpt lat="56.874014021006" lon="14.84000056123">
        <ele>191</ele>
        <time>2020-02-08T12:18:58Z</time>
      </trkpt>
      <trkpt lat="56.874203787222" lon="14.840078764357">
        <ele>190.8</ele>
        <time>2020-02-08T12:19:07Z</time>
      </trkpt>
      <trkpt lat="56.87438751847" lon="14.840103574781">
        <ele>190.8</ele>
        <time>2020-02-08T12:19:14Z</time>
      </trkpt>
      <trkpt lat="56.874554150642" lon="14.839988491294">
        <ele>190.4</ele>
        <time>2020-02-08T12:19:21Z</time>
      </trkpt>
      <trkpt lat="56.874692032897" lon="14.839863517165">
        <ele>189</ele>
        <time>2020-02-08T12:19:28Z</time>
      </trkpt>
      <trkpt lat="56.874738552442" lon="14.839837281818">
        <ele>187.8</ele>
        <time>2020-02-08T12:19:30Z</time>
      </trkpt>
      <trkpt lat="56.874925301174" lon="14.839738459217">
        <ele>188.6</ele>
        <time>2020-02-08T12:19:38Z</time>
      </trkpt>
      <trkpt lat="56.874941059146" lon="14.839703422875">
        <ele>189.2</ele>
        <time>2020-02-08T12:19:39Z</time>
      </trkpt>
      <trkpt lat="56.875071313872" lon="14.839548693001">
        <ele>190.4</ele>
        <time>2020-02-08T12:19:43Z</time>
      </trkpt>
      <trkpt lat="56.87521648838" lon="14.839274269595">
        <ele>188.8</ele>
        <time>2020-02-08T12:19:50Z</time>
      </trkpt>
      <trkpt lat="56.875301397027" lon="14.839234287932">
        <ele>187.6</ele>
        <time>2020-02-08T12:19:53Z</time>
      </trkpt>
      <trkpt lat="56.875437435264" lon="14.839189947681">
        <ele>186.6</ele>
        <time>2020-02-08T12:19:58Z</time>
      </trkpt>
      <trkpt lat="56.875517817685" lon="14.839177207193">
        <ele>186</ele>
        <time>2020-02-08T12:20:02Z</time>
      </trkpt>
    </trkseg>
  </trk>
</gpx>